﻿_id	battery_voltage	product_version	base_id	internal_temperature	pressure	minor_version	major_version	co2_ppm	alarm	up_cnt	humidity	id	timestamp
1	6.385	3	1	23	966	3	1	1694	1	1	35	lorapark-co2-01	2026-03-17T09:12:45
2	6.419	3	1	23	966	3	1	1198	1	2	33	lorapark-co2-01	2026-03-17T09:17:39
3	6.368	3	1	23	968	3	1	1337	1	1	48	lorapark-co2-01	2026-04-16T07:36:15
4	6.316	3	1	23	967	3	1	1546	1	1	48	lorapark-co2-02	2026-04-16T07:40:43
5	6.345	3	1	24	967	3	1	804	0	2	38	lorapark-co2-02	2026-04-16T07:55:31
6	6.419	3	1	24	968	3	1	932	1	2	41	lorapark-co2-01	2026-04-16T08:06:03
7	6.39	3	1	23	968	3	1	854	0	3	40	lorapark-co2-01	2026-04-16T08:11:03
8	6.328	3	1	24	967	3	1	633	0	3	37	lorapark-co2-02	2026-04-16T08:25:32
9	6.39	3	1	23	968	3	1	617	0	4	39	lorapark-co2-01	2026-04-16T08:41:04
10	6.339	3	1	23	967	3	1	611	0	4	35	lorapark-co2-02	2026-04-16T08:55:32
11	6.39	3	1	23	968	3	1	838	0	5	41	lorapark-co2-01	2026-04-16T09:11:04
12	6.396	3	1	23	968	3	1	1036	1	6	42	lorapark-co2-01	2026-04-16T09:21:04
13	6.35	3	1	23	967	3	1	639	0	5	36	lorapark-co2-02	2026-04-16T09:25:32
14	6.396	3	1	24	967	3	1	1367	1	7	44	lorapark-co2-01	2026-04-16T09:46:05
15	6.333	3	1	23	967	3	1	578	0	6	36	lorapark-co2-02	2026-04-16T09:55:33
16	6.39	3	1	24	967	3	1	1196	1	8	42	lorapark-co2-01	2026-04-16T10:16:05
17	6.362	3	1	23	967	3	1	609	0	7	36	lorapark-co2-02	2026-04-16T10:25:33
18	6.39	3	1	23	967	3	1	1034	1	9	41	lorapark-co2-01	2026-04-16T10:46:05
19	6.333	3	1	23	967	3	1	599	0	8	36	lorapark-co2-02	2026-04-16T10:55:34
20	6.373	3	1	23	967	3	1	863	0	10	41	lorapark-co2-01	2026-04-16T11:01:06
21	6.413	3	1	24	967	3	1	1205	1	11	41	lorapark-co2-01	2026-04-16T11:06:06
22	6.368	3	1	23	967	3	1	586	0	9	36	lorapark-co2-02	2026-04-16T11:25:34
23	6.379	3	1	23	967	3	1	918	1	12	40	lorapark-co2-01	2026-04-16T11:36:06
24	6.339	3	1	22	967	3	1	540	0	10	36	lorapark-co2-02	2026-04-16T11:55:34
25	6.379	3	1	23	967	3	1	900	0	13	40	lorapark-co2-01	2026-04-16T11:56:06
26	6.339	3	1	22	967	3	1	469	0	11	35	lorapark-co2-02	2026-04-16T12:25:35
27	6.413	3	1	23	967	3	1	867	0	14	40	lorapark-co2-01	2026-04-16T12:26:07
28	6.333	3	1	22	967	3	1	468	0	12	35	lorapark-co2-02	2026-04-16T12:55:35
29	6.379	3	1	23	967	3	1	621	0	15	39	lorapark-co2-01	2026-04-16T12:56:07
30	6.339	3	1	22	967	3	1	573	0	13	36	lorapark-co2-02	2026-04-16T13:25:35
31	6.379	3	1	23	967	3	1	485	0	16	38	lorapark-co2-01	2026-04-16T13:26:07
32	6.339	3	1	22	967	3	1	712	0	14	37	lorapark-co2-02	2026-04-16T13:55:36
33	6.385	3	1	23	967	3	1	529	0	17	38	lorapark-co2-01	2026-04-16T13:56:08
34	6.339	3	1	22	967	3	1	690	0	15	37	lorapark-co2-02	2026-04-16T14:25:36
35	6.413	3	1	22	967	3	1	562	0	18	39	lorapark-co2-01	2026-04-16T14:26:08
36	6.339	3	1	22	966	3	1	682	0	16	37	lorapark-co2-02	2026-04-16T14:55:37
37	6.413	3	1	22	967	3	1	576	0	19	39	lorapark-co2-01	2026-04-16T14:56:08
38	6.328	3	1	22	966	3	1	671	0	17	37	lorapark-co2-02	2026-04-16T15:25:37
39	6.373	3	1	22	967	3	1	577	0	20	39	lorapark-co2-01	2026-04-16T15:26:09
40	6.339	3	1	22	966	3	1	652	0	18	37	lorapark-co2-02	2026-04-16T15:55:37
41	6.39	3	1	22	967	3	1	578	0	21	39	lorapark-co2-01	2026-04-16T15:56:09
42	6.345	3	1	22	966	3	1	633	0	19	36	lorapark-co2-02	2026-04-16T16:25:38
43	6.373	3	1	22	967	3	1	586	0	22	39	lorapark-co2-01	2026-04-16T16:26:10
44	6.328	3	1	23	966	3	1	612	0	20	36	lorapark-co2-02	2026-04-16T16:55:38
45	6.402	3	1	22	966	3	1	563	0	23	39	lorapark-co2-01	2026-04-16T16:56:10
46	6.328	3	1	22	966	3	1	598	0	21	36	lorapark-co2-02	2026-04-16T17:25:38
47	6.373	3	1	22	967	3	1	563	0	24	39	lorapark-co2-01	2026-04-16T17:26:10
48	6.373	3	1	22	966	3	1	570	0	22	36	lorapark-co2-02	2026-04-16T17:55:39
49	6.39	3	1	22	967	3	1	557	0	25	40	lorapark-co2-01	2026-04-16T17:56:11
50	6.368	3	1	22	966	3	1	557	0	23	36	lorapark-co2-02	2026-04-16T18:25:39
51	6.379	3	1	22	967	3	1	545	0	26	40	lorapark-co2-01	2026-04-16T18:26:11
52	6.339	3	1	22	967	3	1	543	0	24	36	lorapark-co2-02	2026-04-16T18:55:39
53	6.379	3	1	22	967	3	1	534	0	27	40	lorapark-co2-01	2026-04-16T18:56:11
54	6.339	3	1	22	967	3	1	536	0	25	37	lorapark-co2-02	2026-04-16T19:25:40
55	6.413	3	1	22	967	3	1	527	0	28	40	lorapark-co2-01	2026-04-16T19:26:12
56	6.339	3	1	22	967	3	1	522	0	26	37	lorapark-co2-02	2026-04-16T19:55:40
57	6.379	3	1	22	967	3	1	516	0	29	40	lorapark-co2-01	2026-04-16T19:56:12
58	6.333	3	1	22	967	3	1	512	0	27	37	lorapark-co2-02	2026-04-16T20:25:41
59	6.373	3	1	22	967	3	1	502	0	30	40	lorapark-co2-01	2026-04-16T20:26:13
60	6.333	3	1	22	967	3	1	494	0	28	37	lorapark-co2-02	2026-04-16T20:55:41
61	6.385	3	1	22	967	3	1	489	0	31	41	lorapark-co2-01	2026-04-16T20:56:13
62	6.339	3	1	22	967	3	1	484	0	29	37	lorapark-co2-02	2026-04-16T21:25:41
63	6.413	3	1	22	967	3	1	480	0	32	41	lorapark-co2-01	2026-04-16T21:26:13
64	6.379	3	1	22	967	3	1	473	0	30	37	lorapark-co2-02	2026-04-16T21:55:42
65	6.385	3	1	22	967	3	1	470	0	33	41	lorapark-co2-01	2026-04-16T21:56:14
66	6.333	3	1	22	967	3	1	461	0	31	37	lorapark-co2-02	2026-04-16T22:25:42
67	6.385	3	1	22	967	3	1	456	0	34	41	lorapark-co2-01	2026-04-16T22:26:14
68	6.345	3	1	22	967	3	1	450	0	32	37	lorapark-co2-02	2026-04-16T22:55:42
69	6.385	3	1	22	967	3	1	448	0	35	41	lorapark-co2-01	2026-04-16T22:56:14
70	6.379	3	1	22	967	3	1	442	0	33	37	lorapark-co2-02	2026-04-16T23:25:43
71	6.379	3	1	22	967	3	1	435	0	36	41	lorapark-co2-01	2026-04-16T23:26:15
72	6.333	3	1	21	967	3	1	428	0	36	37	lorapark-co2-02	2026-04-17T00:55:44
73	6.385	3	1	21	967	3	1	423	0	39	41	lorapark-co2-01	2026-04-17T00:56:16
74	6.328	3	1	21	967	3	1	424	0	37	37	lorapark-co2-02	2026-04-17T01:25:44
75	6.379	3	1	21	967	3	1	416	0	40	41	lorapark-co2-01	2026-04-17T01:26:16
76	6.339	3	1	21	967	3	1	422	0	38	37	lorapark-co2-02	2026-04-17T01:55:45
77	6.379	3	1	21	967	3	1	414	0	41	41	lorapark-co2-01	2026-04-17T01:56:17
78	6.339	3	1	21	967	3	1	420	0	39	37	lorapark-co2-02	2026-04-17T02:25:45
79	6.385	3	1	21	967	3	1	408	0	42	41	lorapark-co2-01	2026-04-17T02:26:17
80	6.339	3	1	21	966	3	1	418	0	40	37	lorapark-co2-02	2026-04-17T02:55:45
81	6.39	3	1	21	967	3	1	402	0	43	41	lorapark-co2-01	2026-04-17T02:56:17
82	6.339	3	1	21	966	3	1	417	0	41	36	lorapark-co2-02	2026-04-17T03:25:46
83	6.402	3	1	21	967	3	1	400	0	44	40	lorapark-co2-01	2026-04-17T03:26:18
84	6.328	3	1	21	966	3	1	415	0	42	36	lorapark-co2-02	2026-04-17T03:55:46
85	6.39	3	1	21	967	3	1	399	0	45	40	lorapark-co2-01	2026-04-17T03:56:18
86	6.339	3	1	21	967	3	1	414	0	43	36	lorapark-co2-02	2026-04-17T04:25:46
87	6.379	3	1	22	967	3	1	397	0	46	39	lorapark-co2-01	2026-04-17T04:26:19
88	6.328	3	1	21	967	3	1	414	0	44	36	lorapark-co2-02	2026-04-17T04:55:47
89	6.385	3	1	22	967	3	1	395	0	47	39	lorapark-co2-01	2026-04-17T04:56:19
90	6.333	3	1	22	967	3	1	414	0	45	36	lorapark-co2-02	2026-04-17T05:25:47
91	6.373	3	1	22	967	3	1	395	0	48	39	lorapark-co2-01	2026-04-17T05:26:19
92	6.368	3	1	22	967	3	1	415	0	46	36	lorapark-co2-02	2026-04-17T05:55:47
93	6.385	3	1	22	967	3	1	394	0	49	39	lorapark-co2-01	2026-04-17T05:56:20
94	6.333	3	1	22	967	3	1	419	0	47	36	lorapark-co2-02	2026-04-17T06:25:48
95	6.407	3	1	22	967	3	1	396	0	50	38	lorapark-co2-01	2026-04-17T06:26:20
96	6.373	3	1	22	967	3	1	426	0	48	36	lorapark-co2-02	2026-04-17T06:55:48
97	6.396	3	1	22	967	3	1	410	0	51	38	lorapark-co2-01	2026-04-17T06:56:20
98	6.356	3	1	22	967	3	1	430	0	49	35	lorapark-co2-02	2026-04-17T07:25:49
99	6.368	3	1	23	967	3	1	425	0	52	38	lorapark-co2-01	2026-04-17T07:26:21
100	6.339	3	1	22	967	3	1	451	0	50	35	lorapark-co2-02	2026-04-17T07:55:49
101	6.419	3	1	23	967	3	1	425	0	53	38	lorapark-co2-01	2026-04-17T07:56:21
102	6.345	3	1	22	967	3	1	473	0	51	36	lorapark-co2-02	2026-04-17T08:25:49
103	6.379	3	1	23	967	3	1	423	0	54	37	lorapark-co2-01	2026-04-17T08:26:22
104	6.328	3	1	22	967	3	1	501	0	52	36	lorapark-co2-02	2026-04-17T08:55:50
105	6.39	3	1	24	967	3	1	418	0	55	37	lorapark-co2-01	2026-04-17T08:56:22
106	6.396	3	1	24	967	3	1	414	0	56	37	lorapark-co2-01	2026-04-17T09:26:23
107	6.328	3	1	22	967	3	1	588	0	54	36	lorapark-co2-02	2026-04-17T09:55:50
108	6.373	3	1	24	967	3	1	411	0	57	37	lorapark-co2-01	2026-04-17T09:56:23
109	6.339	3	1	22	966	3	1	572	0	55	36	lorapark-co2-02	2026-04-17T10:25:51
110	6.379	3	1	23	966	3	1	407	0	58	37	lorapark-co2-01	2026-04-17T10:26:23
111	6.362	3	1	22	966	3	1	541	0	56	37	lorapark-co2-02	2026-04-17T10:55:51
112	6.407	3	1	23	966	3	1	404	0	59	37	lorapark-co2-01	2026-04-17T10:56:23
113	6.333	3	1	22	966	3	1	512	0	57	36	lorapark-co2-02	2026-04-17T11:25:51
114	6.385	3	1	23	966	3	1	397	0	60	38	lorapark-co2-01	2026-04-17T11:26:24
115	6.339	3	1	22	966	3	1	490	0	58	36	lorapark-co2-02	2026-04-17T11:55:52
116	6.402	3	1	23	966	3	1	392	0	61	38	lorapark-co2-01	2026-04-17T11:56:24
117	6.368	3	1	22	965	3	1	463	0	59	36	lorapark-co2-02	2026-04-17T12:25:52
118	6.379	3	1	23	966	3	1	388	0	62	38	lorapark-co2-01	2026-04-17T12:26:25
119	6.328	3	1	22	965	3	1	447	0	60	35	lorapark-co2-02	2026-04-17T12:55:53
120	6.368	3	1	23	966	3	1	386	0	63	38	lorapark-co2-01	2026-04-17T12:56:25
121	6.333	3	1	22	965	3	1	445	0	61	35	lorapark-co2-02	2026-04-17T13:25:53
122	6.379	3	1	23	965	3	1	379	0	64	38	lorapark-co2-01	2026-04-17T13:26:25
123	6.339	3	1	22	965	3	1	445	0	62	35	lorapark-co2-02	2026-04-17T13:55:53
124	6.385	3	1	23	965	3	1	374	0	65	38	lorapark-co2-01	2026-04-17T13:56:26
125	6.345	3	1	22	965	3	1	442	0	63	35	lorapark-co2-02	2026-04-17T14:25:54
126	6.413	3	1	23	965	3	1	368	0	66	38	lorapark-co2-01	2026-04-17T14:26:26
127	6.328	3	1	22	965	3	1	441	0	64	35	lorapark-co2-02	2026-04-17T14:55:54
128	6.379	3	1	23	965	3	1	365	0	67	38	lorapark-co2-01	2026-04-17T14:56:26
129	6.35	3	1	23	964	3	1	440	0	65	35	lorapark-co2-02	2026-04-17T15:25:54
130	6.368	3	1	23	964	3	1	363	0	68	38	lorapark-co2-01	2026-04-17T15:26:27
131	6.322	3	1	23	964	3	1	437	0	66	34	lorapark-co2-02	2026-04-17T15:55:55
132	6.379	3	1	23	964	3	1	361	0	69	38	lorapark-co2-01	2026-04-17T15:56:27
133	6.328	3	1	23	964	3	1	434	0	67	34	lorapark-co2-02	2026-04-17T16:25:55
134	6.385	3	1	23	964	3	1	355	0	70	38	lorapark-co2-01	2026-04-17T16:26:28
135	6.345	3	1	23	964	3	1	436	0	68	35	lorapark-co2-02	2026-04-17T16:55:55
136	6.373	3	1	23	964	3	1	351	0	71	38	lorapark-co2-01	2026-04-17T16:56:28
137	6.339	3	1	23	964	3	1	439	0	69	35	lorapark-co2-02	2026-04-17T17:25:56
138	6.379	3	1	23	965	3	1	348	0	72	37	lorapark-co2-01	2026-04-17T17:26:28
139	6.333	3	1	23	965	3	1	440	0	70	34	lorapark-co2-02	2026-04-17T17:55:56
140	6.368	3	1	23	965	3	1	354	0	73	38	lorapark-co2-01	2026-04-17T17:56:29
141	6.322	3	1	23	965	3	1	438	0	71	34	lorapark-co2-02	2026-04-17T18:25:57
142	6.39	3	1	23	965	3	1	376	0	74	38	lorapark-co2-01	2026-04-17T18:26:29
143	6.339	3	1	23	965	3	1	435	0	72	35	lorapark-co2-02	2026-04-17T18:55:57
144	6.407	3	1	23	965	3	1	381	0	75	38	lorapark-co2-01	2026-04-17T18:56:29
145	6.322	3	1	23	965	3	1	438	0	73	35	lorapark-co2-02	2026-04-17T19:25:57
146	6.379	3	1	23	965	3	1	381	0	76	38	lorapark-co2-01	2026-04-17T19:26:30
147	6.339	3	1	22	965	3	1	441	0	74	35	lorapark-co2-02	2026-04-17T19:55:58
148	6.373	3	1	22	965	3	1	379	0	77	38	lorapark-co2-01	2026-04-17T19:56:30
149	6.35	3	1	22	965	3	1	437	0	75	35	lorapark-co2-02	2026-04-17T20:25:58
150	6.373	3	1	22	965	3	1	377	0	78	38	lorapark-co2-01	2026-04-17T20:26:31
151	6.333	3	1	22	965	3	1	436	0	76	35	lorapark-co2-02	2026-04-17T20:55:58
152	6.368	3	1	22	965	3	1	369	0	79	38	lorapark-co2-01	2026-04-17T20:56:31
153	6.328	3	1	22	965	3	1	432	0	77	35	lorapark-co2-02	2026-04-17T21:25:59
154	6.39	3	1	22	965	3	1	365	0	80	38	lorapark-co2-01	2026-04-17T21:26:31
155	6.316	3	1	22	965	3	1	433	0	78	35	lorapark-co2-02	2026-04-17T21:55:59
156	6.373	3	1	22	965	3	1	362	0	81	38	lorapark-co2-01	2026-04-17T21:56:32
157	6.328	3	1	22	965	3	1	431	0	79	35	lorapark-co2-02	2026-04-17T22:26:00
158	6.385	3	1	22	965	3	1	360	0	82	38	lorapark-co2-01	2026-04-17T22:26:32
159	6.35	3	1	22	965	3	1	430	0	80	35	lorapark-co2-02	2026-04-17T22:56:00
160	6.402	3	1	22	966	3	1	356	0	83	38	lorapark-co2-01	2026-04-17T22:56:32
161	6.339	3	1	22	965	3	1	426	0	81	35	lorapark-co2-02	2026-04-17T23:26:00
162	6.368	3	1	22	966	3	1	354	0	84	38	lorapark-co2-01	2026-04-17T23:26:33
163	6.328	3	1	22	965	3	1	425	0	82	35	lorapark-co2-02	2026-04-17T23:56:01
164	6.413	3	1	22	966	3	1	351	0	85	38	lorapark-co2-01	2026-04-17T23:56:33
165	6.322	3	1	22	965	3	1	423	0	83	35	lorapark-co2-02	2026-04-18T00:26:01
166	6.396	3	1	22	965	3	1	350	0	86	38	lorapark-co2-01	2026-04-18T00:26:34
167	6.322	3	1	22	965	3	1	422	0	84	35	lorapark-co2-02	2026-04-18T00:56:01
168	6.379	3	1	22	965	3	1	350	0	87	38	lorapark-co2-01	2026-04-18T00:56:34
169	6.333	3	1	22	965	3	1	419	0	85	35	lorapark-co2-02	2026-04-18T01:26:02
170	6.373	3	1	22	965	3	1	349	0	88	38	lorapark-co2-01	2026-04-18T01:26:34
171	6.339	3	1	21	965	3	1	417	0	86	35	lorapark-co2-02	2026-04-18T01:56:02
172	6.379	3	1	22	965	3	1	347	0	89	37	lorapark-co2-01	2026-04-18T01:56:35
173	6.328	3	1	21	965	3	1	417	0	87	35	lorapark-co2-02	2026-04-18T02:26:02
174	6.413	3	1	22	965	3	1	346	0	90	37	lorapark-co2-01	2026-04-18T02:26:35
175	6.368	3	1	21	965	3	1	417	0	88	35	lorapark-co2-02	2026-04-18T02:56:03
176	6.402	3	1	22	965	3	1	347	0	91	37	lorapark-co2-01	2026-04-18T02:56:35
177	6.362	3	1	21	965	3	1	416	0	89	35	lorapark-co2-02	2026-04-18T03:26:03
178	6.413	3	1	22	965	3	1	348	0	92	37	lorapark-co2-01	2026-04-18T03:26:36
179	6.333	3	1	21	965	3	1	416	0	90	35	lorapark-co2-02	2026-04-18T03:56:04
180	6.368	3	1	22	965	3	1	347	0	93	37	lorapark-co2-01	2026-04-18T03:56:36
181	6.322	3	1	21	965	3	1	416	0	91	35	lorapark-co2-02	2026-04-18T04:26:04
182	6.373	3	1	21	965	3	1	349	0	94	37	lorapark-co2-01	2026-04-18T04:26:37
183	6.339	3	1	21	965	3	1	418	0	92	35	lorapark-co2-02	2026-04-18T04:56:04
184	6.373	3	1	21	965	3	1	349	0	95	37	lorapark-co2-01	2026-04-18T04:56:37
185	6.368	3	1	21	965	3	1	418	0	93	35	lorapark-co2-02	2026-04-18T05:26:05
186	6.379	3	1	21	965	3	1	350	0	96	37	lorapark-co2-01	2026-04-18T05:26:37
187	6.35	3	1	22	965	3	1	418	0	94	35	lorapark-co2-02	2026-04-18T05:56:05
188	6.385	3	1	21	966	3	1	348	0	97	36	lorapark-co2-01	2026-04-18T05:56:38
189	6.328	3	1	22	965	3	1	418	0	95	34	lorapark-co2-02	2026-04-18T06:26:05
190	6.413	3	1	22	966	3	1	347	0	98	36	lorapark-co2-01	2026-04-18T06:26:38
191	6.328	3	1	22	965	3	1	417	0	96	34	lorapark-co2-02	2026-04-18T06:56:06
192	6.407	3	1	22	965	3	1	348	0	99	36	lorapark-co2-01	2026-04-18T06:56:38
193	6.35	3	1	22	965	3	1	419	0	97	34	lorapark-co2-02	2026-04-18T07:26:06
194	6.385	3	1	22	965	3	1	347	0	100	36	lorapark-co2-01	2026-04-18T07:26:39
195	6.328	3	1	22	965	3	1	442	0	98	37	lorapark-co2-02	2026-04-18T07:56:06
196	6.407	3	1	23	965	3	1	356	0	101	35	lorapark-co2-01	2026-04-18T07:56:39
197	6.328	3	1	22	965	3	1	434	0	99	35	lorapark-co2-02	2026-04-18T08:26:07
198	6.379	3	1	23	965	3	1	360	0	102	35	lorapark-co2-01	2026-04-18T08:26:40
199	6.368	3	1	22	965	3	1	428	0	100	35	lorapark-co2-02	2026-04-18T08:56:07
200	6.373	3	1	23	965	3	1	371	0	103	35	lorapark-co2-01	2026-04-18T08:56:40
201	6.339	3	1	22	965	3	1	424	0	101	35	lorapark-co2-02	2026-04-18T09:26:08
202	6.385	3	1	23	965	3	1	387	0	104	35	lorapark-co2-01	2026-04-18T09:26:40
203	6.345	3	1	22	965	3	1	422	0	102	35	lorapark-co2-02	2026-04-18T09:56:08
204	6.373	3	1	23	965	3	1	393	0	105	35	lorapark-co2-01	2026-04-18T09:56:41
205	6.328	3	1	22	965	3	1	418	0	103	35	lorapark-co2-02	2026-04-18T10:26:08
206	6.39	3	1	23	965	3	1	391	0	106	36	lorapark-co2-01	2026-04-18T10:26:41
207	6.316	3	1	22	965	3	1	418	0	104	35	lorapark-co2-02	2026-04-18T10:56:09
208	6.333	3	1	22	964	3	1	415	0	105	35	lorapark-co2-02	2026-04-18T11:26:09
209	6.379	3	1	23	964	3	1	385	0	108	36	lorapark-co2-01	2026-04-18T11:26:42
210	6.339	3	1	22	964	3	1	412	0	106	35	lorapark-co2-02	2026-04-18T11:56:09
211	6.407	3	1	23	964	3	1	378	0	109	36	lorapark-co2-01	2026-04-18T11:56:42
212	6.328	3	1	22	964	3	1	408	0	107	35	lorapark-co2-02	2026-04-18T12:26:10
213	6.373	3	1	23	964	3	1	376	0	110	36	lorapark-co2-01	2026-04-18T12:26:43
214	6.35	3	1	22	964	3	1	407	0	108	35	lorapark-co2-02	2026-04-18T12:56:10
215	6.362	3	1	23	964	3	1	372	0	111	37	lorapark-co2-01	2026-04-18T12:56:43
216	6.39	3	1	23	964	3	1	367	0	112	37	lorapark-co2-01	2026-04-18T13:26:43
217	6.328	3	1	22	963	3	1	404	0	110	35	lorapark-co2-02	2026-04-18T13:56:11
218	6.368	3	1	23	963	3	1	364	0	113	37	lorapark-co2-01	2026-04-18T13:56:44
219	6.35	3	1	23	963	3	1	404	0	111	35	lorapark-co2-02	2026-04-18T14:26:11
220	6.373	3	1	23	963	3	1	361	0	114	37	lorapark-co2-01	2026-04-18T14:26:44
221	6.333	3	1	23	963	3	1	404	0	112	35	lorapark-co2-02	2026-04-18T14:56:12
222	6.362	3	1	23	963	3	1	359	0	115	37	lorapark-co2-01	2026-04-18T14:56:44
223	6.333	3	1	23	963	3	1	404	0	114	35	lorapark-co2-02	2026-04-18T15:56:12
224	6.368	3	1	23	963	3	1	355	0	117	37	lorapark-co2-01	2026-04-18T15:56:45
225	6.322	3	1	23	963	3	1	406	0	115	35	lorapark-co2-02	2026-04-18T16:26:13
226	6.368	3	1	23	963	3	1	354	0	118	37	lorapark-co2-01	2026-04-18T16:26:46
227	6.328	3	1	23	963	3	1	407	0	116	35	lorapark-co2-02	2026-04-18T16:56:13
228	6.373	3	1	23	963	3	1	352	0	119	37	lorapark-co2-01	2026-04-18T16:56:46
229	6.328	3	1	23	963	3	1	407	0	117	35	lorapark-co2-02	2026-04-18T17:26:13
230	6.368	3	1	23	963	3	1	351	0	120	37	lorapark-co2-01	2026-04-18T17:26:46
231	6.333	3	1	23	963	3	1	406	0	118	35	lorapark-co2-02	2026-04-18T17:56:14
232	6.379	3	1	23	963	3	1	348	0	121	37	lorapark-co2-01	2026-04-18T17:56:47
233	6.328	3	1	22	963	3	1	405	0	119	35	lorapark-co2-02	2026-04-18T18:26:14
234	6.373	3	1	23	963	3	1	345	0	122	37	lorapark-co2-01	2026-04-18T18:26:47
235	6.356	3	1	22	963	3	1	402	0	120	35	lorapark-co2-02	2026-04-18T18:56:14
236	6.373	3	1	23	963	3	1	344	0	123	37	lorapark-co2-01	2026-04-18T18:56:47
237	6.339	3	1	22	963	3	1	400	0	121	35	lorapark-co2-02	2026-04-18T19:26:15
238	6.385	3	1	23	963	3	1	343	0	124	37	lorapark-co2-01	2026-04-18T19:26:48
239	6.322	3	1	22	963	3	1	397	0	122	35	lorapark-co2-02	2026-04-18T19:56:15
240	6.379	3	1	23	963	3	1	340	0	125	38	lorapark-co2-01	2026-04-18T19:56:48
241	6.333	3	1	22	963	3	1	393	0	123	35	lorapark-co2-02	2026-04-18T20:26:16
242	6.368	3	1	23	963	3	1	340	0	126	38	lorapark-co2-01	2026-04-18T20:26:48
243	6.328	3	1	22	963	3	1	391	0	124	35	lorapark-co2-02	2026-04-18T20:56:16
244	6.379	3	1	23	963	3	1	339	0	127	38	lorapark-co2-01	2026-04-18T20:56:49
245	6.316	3	1	22	963	3	1	388	0	125	35	lorapark-co2-02	2026-04-18T21:26:16
246	6.373	3	1	23	963	3	1	340	0	128	38	lorapark-co2-01	2026-04-18T21:26:49
247	6.328	3	1	22	963	3	1	386	0	126	35	lorapark-co2-02	2026-04-18T21:56:17
248	6.373	3	1	23	963	3	1	339	0	129	38	lorapark-co2-01	2026-04-18T21:56:50
249	6.328	3	1	22	962	3	1	384	0	127	35	lorapark-co2-02	2026-04-18T22:26:17
250	6.379	3	1	23	963	3	1	339	0	130	38	lorapark-co2-01	2026-04-18T22:26:50
251	6.339	3	1	22	962	3	1	382	0	128	35	lorapark-co2-02	2026-04-18T22:56:17
252	6.402	3	1	23	962	3	1	338	0	131	38	lorapark-co2-01	2026-04-18T22:56:50
253	6.322	3	1	22	962	3	1	380	0	129	35	lorapark-co2-02	2026-04-18T23:26:18
254	6.407	3	1	23	962	3	1	336	0	132	38	lorapark-co2-01	2026-04-18T23:26:51
255	6.356	3	1	22	962	3	1	380	0	130	35	lorapark-co2-02	2026-04-18T23:56:18
256	6.402	3	1	23	962	3	1	336	0	133	38	lorapark-co2-01	2026-04-18T23:56:51
257	6.328	3	1	22	962	3	1	380	0	131	35	lorapark-co2-02	2026-04-19T00:26:18
258	6.396	3	1	23	962	3	1	335	0	134	38	lorapark-co2-01	2026-04-19T00:26:51
259	6.356	3	1	22	962	3	1	379	0	132	35	lorapark-co2-02	2026-04-19T00:56:19
260	6.373	3	1	22	962	3	1	334	0	135	38	lorapark-co2-01	2026-04-19T00:56:52
261	6.362	3	1	22	961	3	1	379	0	133	35	lorapark-co2-02	2026-04-19T01:26:19
262	6.362	3	1	22	961	3	1	333	0	136	38	lorapark-co2-01	2026-04-19T01:26:52
263	6.339	3	1	22	961	3	1	380	0	134	35	lorapark-co2-02	2026-04-19T01:56:20
264	6.362	3	1	22	961	3	1	334	0	137	38	lorapark-co2-01	2026-04-19T01:56:53
265	6.322	3	1	22	961	3	1	381	0	135	35	lorapark-co2-02	2026-04-19T02:26:20
266	6.396	3	1	22	961	3	1	334	0	138	38	lorapark-co2-01	2026-04-19T02:26:53
267	6.328	3	1	22	961	3	1	382	0	136	36	lorapark-co2-02	2026-04-19T02:56:20
268	6.407	3	1	22	961	3	1	334	0	139	38	lorapark-co2-01	2026-04-19T02:56:53
269	6.339	3	1	22	961	3	1	383	0	137	36	lorapark-co2-02	2026-04-19T03:26:21
270	6.402	3	1	22	961	3	1	334	0	140	38	lorapark-co2-01	2026-04-19T03:26:54
271	6.339	3	1	22	961	3	1	384	0	138	36	lorapark-co2-02	2026-04-19T03:56:21
272	6.373	3	1	22	961	3	1	334	0	141	38	lorapark-co2-01	2026-04-19T03:56:54
273	6.333	3	1	22	960	3	1	387	0	140	36	lorapark-co2-02	2026-04-19T04:56:22
274	6.368	3	1	22	960	3	1	335	0	143	38	lorapark-co2-01	2026-04-19T04:56:55
275	6.35	3	1	22	960	3	1	388	0	141	36	lorapark-co2-02	2026-04-19T05:26:22
276	6.373	3	1	22	961	3	1	336	0	144	38	lorapark-co2-01	2026-04-19T05:26:55
277	6.333	3	1	22	960	3	1	390	0	142	36	lorapark-co2-02	2026-04-19T05:56:23
278	6.373	3	1	22	961	3	1	336	0	145	38	lorapark-co2-01	2026-04-19T05:56:56
279	6.322	3	1	22	961	3	1	392	0	143	36	lorapark-co2-02	2026-04-19T06:26:23
280	6.373	3	1	22	961	3	1	337	0	146	38	lorapark-co2-01	2026-04-19T06:26:56
281	6.322	3	1	22	961	3	1	393	0	144	36	lorapark-co2-02	2026-04-19T06:56:23
282	6.368	3	1	22	961	3	1	337	0	147	38	lorapark-co2-01	2026-04-19T06:56:56
283	6.356	3	1	22	961	3	1	393	0	145	36	lorapark-co2-02	2026-04-19T07:26:24
284	6.368	3	1	22	961	3	1	338	0	148	38	lorapark-co2-01	2026-04-19T07:26:57
285	6.322	3	1	22	961	3	1	396	0	146	36	lorapark-co2-02	2026-04-19T07:56:24
286	6.39	3	1	23	961	3	1	335	0	149	38	lorapark-co2-01	2026-04-19T07:56:57
287	6.316	3	1	22	961	3	1	394	0	147	36	lorapark-co2-02	2026-04-19T08:26:24
288	6.373	3	1	23	962	3	1	336	0	150	38	lorapark-co2-01	2026-04-19T08:26:57
289	6.368	3	1	23	962	3	1	336	0	151	38	lorapark-co2-01	2026-04-19T08:56:58
290	6.333	3	1	22	962	3	1	380	0	149	36	lorapark-co2-02	2026-04-19T09:26:25
291	6.373	3	1	23	962	3	1	335	0	152	38	lorapark-co2-01	2026-04-19T09:26:58
292	6.368	3	1	22	963	3	1	376	0	150	36	lorapark-co2-02	2026-04-19T09:56:25
293	6.373	3	1	23	963	3	1	335	0	153	38	lorapark-co2-01	2026-04-19T09:56:59
294	6.356	3	1	22	962	3	1	371	0	151	36	lorapark-co2-02	2026-04-19T10:26:26
295	6.368	3	1	23	962	3	1	335	0	154	38	lorapark-co2-01	2026-04-19T10:26:59
296	6.328	3	1	22	962	3	1	364	0	152	36	lorapark-co2-02	2026-04-19T10:56:26
297	6.373	3	1	23	962	3	1	334	0	155	38	lorapark-co2-01	2026-04-19T10:56:59
298	6.322	3	1	22	962	3	1	364	0	153	36	lorapark-co2-02	2026-04-19T11:26:27
299	6.362	3	1	23	962	3	1	333	0	156	38	lorapark-co2-01	2026-04-19T11:27:00
300	6.35	3	1	22	962	3	1	363	0	154	36	lorapark-co2-02	2026-04-19T11:56:27
301	6.368	3	1	23	962	3	1	331	0	157	38	lorapark-co2-01	2026-04-19T11:57:00
302	6.345	3	1	22	963	3	1	361	0	155	36	lorapark-co2-02	2026-04-19T12:26:27
303	6.379	3	1	23	963	3	1	329	0	158	38	lorapark-co2-01	2026-04-19T12:27:00
304	6.333	3	1	22	963	3	1	358	0	156	36	lorapark-co2-02	2026-04-19T12:56:28
305	6.407	3	1	23	963	3	1	329	0	159	38	lorapark-co2-01	2026-04-19T12:57:01
306	6.328	3	1	22	963	3	1	353	0	157	36	lorapark-co2-02	2026-04-19T13:26:28
307	6.368	3	1	23	963	3	1	325	0	160	38	lorapark-co2-01	2026-04-19T13:27:01
308	6.328	3	1	22	962	3	1	351	0	158	36	lorapark-co2-02	2026-04-19T13:56:28
309	6.368	3	1	23	962	3	1	324	0	161	38	lorapark-co2-01	2026-04-19T13:57:02
310	6.322	3	1	22	963	3	1	348	0	159	36	lorapark-co2-02	2026-04-19T14:26:29
311	6.396	3	1	23	963	3	1	323	0	162	38	lorapark-co2-01	2026-04-19T14:27:02
312	6.322	3	1	23	963	3	1	347	0	160	35	lorapark-co2-02	2026-04-19T14:56:29
313	6.362	3	1	23	963	3	1	323	0	163	38	lorapark-co2-01	2026-04-19T14:57:02
314	6.328	3	1	24	963	3	1	345	0	161	34	lorapark-co2-02	2026-04-19T15:26:29
315	6.373	3	1	23	963	3	1	322	0	164	38	lorapark-co2-01	2026-04-19T15:27:03
316	6.328	3	1	24	963	3	1	344	0	162	33	lorapark-co2-02	2026-04-19T15:56:30
317	6.356	3	1	23	963	3	1	321	0	165	38	lorapark-co2-01	2026-04-19T15:57:03
318	6.328	3	1	24	963	3	1	344	0	163	32	lorapark-co2-02	2026-04-19T16:26:30
319	6.373	3	1	23	963	3	1	319	0	166	38	lorapark-co2-01	2026-04-19T16:27:03
320	6.356	3	1	24	963	3	1	348	0	164	33	lorapark-co2-02	2026-04-19T16:56:31
321	6.368	3	1	23	964	3	1	318	0	167	38	lorapark-co2-01	2026-04-19T16:57:04
322	6.322	3	1	23	964	3	1	348	0	165	33	lorapark-co2-02	2026-04-19T17:26:31
323	6.368	3	1	23	964	3	1	316	0	168	38	lorapark-co2-01	2026-04-19T17:27:04
324	6.333	3	1	23	964	3	1	348	0	166	33	lorapark-co2-02	2026-04-19T17:56:31
325	6.362	3	1	23	964	3	1	314	0	169	38	lorapark-co2-01	2026-04-19T17:57:05
326	6.322	3	1	23	964	3	1	348	0	167	33	lorapark-co2-02	2026-04-19T18:26:32
327	6.39	3	1	23	964	3	1	314	0	170	38	lorapark-co2-01	2026-04-19T18:27:05
328	6.328	3	1	23	964	3	1	347	0	168	33	lorapark-co2-02	2026-04-19T18:56:32
329	6.373	3	1	22	964	3	1	311	0	171	38	lorapark-co2-01	2026-04-19T18:57:05
330	6.35	3	1	23	964	3	1	348	0	169	33	lorapark-co2-02	2026-04-19T19:26:32
331	6.402	3	1	22	965	3	1	309	0	172	38	lorapark-co2-01	2026-04-19T19:27:06
332	6.35	3	1	23	964	3	1	348	0	170	32	lorapark-co2-02	2026-04-19T19:56:33
333	6.368	3	1	22	965	3	1	308	0	173	38	lorapark-co2-01	2026-04-19T19:57:06
334	6.333	3	1	23	964	3	1	349	0	171	32	lorapark-co2-02	2026-04-19T20:26:33
335	6.368	3	1	22	964	3	1	307	0	174	37	lorapark-co2-01	2026-04-19T20:27:06
336	6.35	3	1	23	964	3	1	349	0	172	32	lorapark-co2-02	2026-04-19T20:56:33
337	6.368	3	1	22	964	3	1	307	0	175	37	lorapark-co2-01	2026-04-19T20:57:07
338	6.35	3	1	23	964	3	1	350	0	173	32	lorapark-co2-02	2026-04-19T21:26:34
339	6.407	3	1	22	964	3	1	305	0	176	37	lorapark-co2-01	2026-04-19T21:27:07
340	6.396	3	1	22	964	3	1	304	0	177	37	lorapark-co2-01	2026-04-19T21:57:08
341	6.333	3	1	22	964	3	1	352	0	176	32	lorapark-co2-02	2026-04-19T22:56:35
342	6.396	3	1	22	964	3	1	303	0	179	36	lorapark-co2-01	2026-04-19T22:57:08
343	6.402	3	1	22	964	3	1	303	0	180	36	lorapark-co2-01	2026-04-19T23:27:09
344	6.333	3	1	22	964	3	1	353	0	178	32	lorapark-co2-02	2026-04-19T23:56:36
345	6.396	3	1	22	964	3	1	303	0	181	36	lorapark-co2-01	2026-04-19T23:57:09
346	6.328	3	1	22	963	3	1	355	0	179	32	lorapark-co2-02	2026-04-20T00:26:36
347	6.396	3	1	22	964	3	1	303	0	182	36	lorapark-co2-01	2026-04-20T00:27:09
348	6.328	3	1	22	963	3	1	356	0	180	32	lorapark-co2-02	2026-04-20T00:56:36
349	6.373	3	1	22	963	3	1	303	0	183	36	lorapark-co2-01	2026-04-20T00:57:10
350	6.316	3	1	22	963	3	1	357	0	181	31	lorapark-co2-02	2026-04-20T01:26:37
351	6.362	3	1	22	963	3	1	303	0	184	36	lorapark-co2-01	2026-04-20T01:27:10
352	6.322	3	1	22	963	3	1	359	0	182	31	lorapark-co2-02	2026-04-20T01:56:37
353	6.362	3	1	22	963	3	1	302	0	185	36	lorapark-co2-01	2026-04-20T01:57:11
354	6.333	3	1	22	963	3	1	361	0	183	31	lorapark-co2-02	2026-04-20T02:26:37
355	6.402	3	1	22	963	3	1	303	0	186	36	lorapark-co2-01	2026-04-20T02:27:11
356	6.356	3	1	22	963	3	1	362	0	184	31	lorapark-co2-02	2026-04-20T02:56:38
357	6.39	3	1	22	963	3	1	302	0	187	36	lorapark-co2-01	2026-04-20T02:57:11
358	6.311	3	1	22	963	3	1	367	0	185	31	lorapark-co2-02	2026-04-20T03:26:38
359	6.402	3	1	22	963	3	1	303	0	188	36	lorapark-co2-01	2026-04-20T03:27:12
360	6.316	3	1	22	962	3	1	368	0	186	31	lorapark-co2-02	2026-04-20T03:56:39
361	6.368	3	1	21	963	3	1	304	0	189	36	lorapark-co2-01	2026-04-20T03:57:12
362	6.333	3	1	22	962	3	1	370	0	187	31	lorapark-co2-02	2026-04-20T04:26:39
363	6.362	3	1	22	962	3	1	306	0	190	34	lorapark-co2-01	2026-04-20T04:27:12
364	6.316	3	1	22	962	3	1	376	0	188	31	lorapark-co2-02	2026-04-20T04:56:39
365	6.368	3	1	22	962	3	1	307	0	191	34	lorapark-co2-01	2026-04-20T04:57:13
366	6.322	3	1	22	962	3	1	390	0	189	29	lorapark-co2-02	2026-04-20T05:26:40
367	6.362	3	1	22	963	3	1	308	0	192	34	lorapark-co2-01	2026-04-20T05:27:13
368	6.345	3	1	22	962	3	1	429	0	190	30	lorapark-co2-02	2026-04-20T05:56:40
369	6.373	3	1	22	963	3	1	308	0	193	34	lorapark-co2-01	2026-04-20T05:57:14
370	6.322	3	1	22	962	3	1	468	0	191	30	lorapark-co2-02	2026-04-20T06:26:40
371	6.39	3	1	23	963	3	1	313	0	194	33	lorapark-co2-01	2026-04-20T06:27:14
372	6.316	3	1	22	962	3	1	500	0	192	30	lorapark-co2-02	2026-04-20T06:56:41
373	6.368	3	1	23	963	3	1	528	0	195	35	lorapark-co2-01	2026-04-20T06:57:14
374	6.328	3	1	22	962	3	1	508	0	193	30	lorapark-co2-02	2026-04-20T07:26:41
375	6.373	3	1	22	962	3	1	326	0	196	30	lorapark-co2-01	2026-04-20T07:27:15
376	6.316	3	1	23	962	3	1	514	0	194	30	lorapark-co2-02	2026-04-20T07:56:41
377	6.362	3	1	23	962	3	1	332	0	197	30	lorapark-co2-01	2026-04-20T07:57:15
378	6.345	3	1	23	962	3	1	535	0	195	30	lorapark-co2-02	2026-04-20T08:26:42
379	6.322	3	1	23	962	3	1	516	0	196	30	lorapark-co2-02	2026-04-20T08:56:42
380	6.368	3	1	24	962	3	1	610	0	199	29	lorapark-co2-01	2026-04-20T08:57:16
381	6.316	3	1	23	962	3	1	500	0	197	30	lorapark-co2-02	2026-04-20T09:26:43
382	6.379	3	1	24	962	3	1	588	0	200	28	lorapark-co2-01	2026-04-20T09:27:16
383	6.333	3	1	23	962	3	1	550	0	198	30	lorapark-co2-02	2026-04-20T09:56:43
384	6.362	3	1	23	962	3	1	295	0	201	26	lorapark-co2-01	2026-04-20T09:57:17
385	6.339	3	1	23	962	3	1	609	0	199	30	lorapark-co2-02	2026-04-20T10:26:43
386	6.356	3	1	23	962	3	1	287	0	202	26	lorapark-co2-01	2026-04-20T10:27:17
387	6.356	3	1	23	962	3	1	681	0	200	31	lorapark-co2-02	2026-04-20T10:56:44
388	6.368	3	1	22	962	3	1	279	0	203	26	lorapark-co2-01	2026-04-20T10:57:17
389	6.316	3	1	22	961	3	1	667	0	201	31	lorapark-co2-02	2026-04-20T11:26:44
390	6.373	3	1	22	962	3	1	277	0	204	25	lorapark-co2-01	2026-04-20T11:27:18
391	6.339	3	1	22	961	3	1	658	0	202	31	lorapark-co2-02	2026-04-20T11:56:44
392	6.396	3	1	22	962	3	1	290	0	205	26	lorapark-co2-01	2026-04-20T11:57:18
393	6.316	3	1	22	961	3	1	698	0	203	31	lorapark-co2-02	2026-04-20T12:26:45
394	6.396	3	1	23	961	3	1	338	0	206	27	lorapark-co2-01	2026-04-20T12:27:18
395	6.35	3	1	22	961	3	1	751	0	204	31	lorapark-co2-02	2026-04-20T12:56:45
396	6.402	3	1	23	961	3	1	375	0	207	28	lorapark-co2-01	2026-04-20T12:57:19
397	6.328	3	1	22	961	3	1	772	0	205	31	lorapark-co2-02	2026-04-20T13:26:46
398	6.373	3	1	23	961	3	1	361	0	208	27	lorapark-co2-01	2026-04-20T13:27:19
399	6.356	3	1	22	960	3	1	723	0	206	31	lorapark-co2-02	2026-04-20T13:56:46
400	6.402	3	1	23	961	3	1	375	0	209	28	lorapark-co2-01	2026-04-20T13:57:20
401	6.322	3	1	22	960	3	1	706	0	207	31	lorapark-co2-02	2026-04-20T14:26:46
402	6.368	3	1	23	960	3	1	413	0	210	29	lorapark-co2-01	2026-04-20T14:27:20
403	6.328	3	1	23	960	3	1	661	0	208	31	lorapark-co2-02	2026-04-20T14:56:47
404	6.368	3	1	23	960	3	1	417	0	211	30	lorapark-co2-01	2026-04-20T14:57:20
405	6.328	3	1	24	960	3	1	630	0	209	30	lorapark-co2-02	2026-04-20T15:26:47
406	6.362	3	1	23	960	3	1	419	0	212	31	lorapark-co2-01	2026-04-20T15:27:21
407	6.316	3	1	24	960	3	1	590	0	210	29	lorapark-co2-02	2026-04-20T15:56:47
408	6.368	3	1	23	961	3	1	420	0	213	31	lorapark-co2-01	2026-04-20T15:57:21
409	6.322	3	1	24	960	3	1	556	0	211	29	lorapark-co2-02	2026-04-20T16:26:48
410	6.362	3	1	23	961	3	1	416	0	214	32	lorapark-co2-01	2026-04-20T16:27:21
411	6.333	3	1	24	961	3	1	541	0	212	29	lorapark-co2-02	2026-04-20T16:56:48
412	6.368	3	1	23	961	3	1	412	0	215	32	lorapark-co2-01	2026-04-20T16:57:22
413	6.322	3	1	24	961	3	1	524	0	213	29	lorapark-co2-02	2026-04-20T17:26:48
414	6.402	3	1	23	961	3	1	415	0	216	32	lorapark-co2-01	2026-04-20T17:27:22
415	6.328	3	1	23	961	3	1	502	0	214	29	lorapark-co2-02	2026-04-20T17:56:49
416	6.368	3	1	22	961	3	1	408	0	217	32	lorapark-co2-01	2026-04-20T17:57:23
417	6.328	3	1	23	961	3	1	493	0	215	29	lorapark-co2-02	2026-04-20T18:26:49
418	6.402	3	1	22	961	3	1	405	0	218	33	lorapark-co2-01	2026-04-20T18:27:23
419	6.322	3	1	23	961	3	1	479	0	216	29	lorapark-co2-02	2026-04-20T18:56:50
420	6.402	3	1	22	962	3	1	395	0	219	33	lorapark-co2-01	2026-04-20T18:57:23
421	6.316	3	1	23	962	3	1	465	0	217	29	lorapark-co2-02	2026-04-20T19:26:50
422	6.368	3	1	22	962	3	1	391	0	220	33	lorapark-co2-01	2026-04-20T19:27:24
423	6.345	3	1	23	962	3	1	447	0	218	29	lorapark-co2-02	2026-04-20T19:56:50
424	6.368	3	1	22	962	3	1	376	0	221	33	lorapark-co2-01	2026-04-20T19:57:24
425	6.322	3	1	23	962	3	1	439	0	219	30	lorapark-co2-02	2026-04-20T20:26:51
426	6.368	3	1	22	962	3	1	363	0	222	33	lorapark-co2-01	2026-04-20T20:27:24
427	6.345	3	1	23	962	3	1	427	0	220	30	lorapark-co2-02	2026-04-20T20:56:51
428	6.373	3	1	22	962	3	1	355	0	223	33	lorapark-co2-01	2026-04-20T20:57:25
429	6.322	3	1	23	962	3	1	422	0	221	30	lorapark-co2-02	2026-04-20T21:26:51
430	6.396	3	1	22	962	3	1	345	0	224	33	lorapark-co2-01	2026-04-20T21:27:25
431	6.35	3	1	22	962	3	1	416	0	222	30	lorapark-co2-02	2026-04-20T21:56:52
432	6.362	3	1	22	962	3	1	344	0	225	33	lorapark-co2-01	2026-04-20T21:57:26
433	6.316	3	1	22	962	3	1	408	0	223	30	lorapark-co2-02	2026-04-20T22:26:52
434	6.362	3	1	22	963	3	1	338	0	226	33	lorapark-co2-01	2026-04-20T22:27:26
435	6.322	3	1	22	963	3	1	404	0	224	30	lorapark-co2-02	2026-04-20T22:56:52
436	6.373	3	1	22	963	3	1	334	0	227	33	lorapark-co2-01	2026-04-20T22:57:26
437	6.345	3	1	22	963	3	1	400	0	225	30	lorapark-co2-02	2026-04-20T23:26:53
438	6.356	3	1	22	963	3	1	331	0	228	34	lorapark-co2-01	2026-04-20T23:27:27
439	6.345	3	1	22	963	3	1	393	0	226	30	lorapark-co2-02	2026-04-20T23:56:53
440	6.356	3	1	22	963	3	1	329	0	229	34	lorapark-co2-01	2026-04-20T23:57:27
441	6.35	3	1	22	963	3	1	386	0	227	30	lorapark-co2-02	2026-04-21T00:26:54
442	6.362	3	1	22	963	3	1	323	0	230	34	lorapark-co2-01	2026-04-21T00:27:27
443	6.35	3	1	22	963	3	1	377	0	228	30	lorapark-co2-02	2026-04-21T00:56:54
444	6.396	3	1	22	963	3	1	319	0	231	34	lorapark-co2-01	2026-04-21T00:57:28
445	6.316	3	1	22	963	3	1	373	0	229	29	lorapark-co2-02	2026-04-21T01:26:54
446	6.368	3	1	22	963	3	1	316	0	232	34	lorapark-co2-01	2026-04-21T01:27:28
447	6.322	3	1	22	963	3	1	368	0	230	29	lorapark-co2-02	2026-04-21T01:56:55
448	6.385	3	1	21	963	3	1	310	0	233	34	lorapark-co2-01	2026-04-21T01:57:29
449	6.322	3	1	22	963	3	1	367	0	231	29	lorapark-co2-02	2026-04-21T02:26:55
450	6.362	3	1	21	963	3	1	309	0	234	34	lorapark-co2-01	2026-04-21T02:27:29
451	6.356	3	1	22	963	3	1	364	0	232	29	lorapark-co2-02	2026-04-21T02:56:55
452	6.396	3	1	21	963	3	1	308	0	235	34	lorapark-co2-01	2026-04-21T02:57:29
453	6.316	3	1	22	963	3	1	364	0	233	29	lorapark-co2-02	2026-04-21T03:26:56
454	6.402	3	1	21	963	3	1	306	0	236	34	lorapark-co2-01	2026-04-21T03:27:30
455	6.35	3	1	22	963	3	1	363	0	234	29	lorapark-co2-02	2026-04-21T03:56:56
456	6.356	3	1	21	963	3	1	305	0	237	34	lorapark-co2-01	2026-04-21T03:57:30
457	6.345	3	1	22	962	3	1	363	0	235	29	lorapark-co2-02	2026-04-21T04:26:56
458	6.39	3	1	22	963	3	1	305	0	238	32	lorapark-co2-01	2026-04-21T04:27:30
459	6.316	3	1	22	963	3	1	366	0	236	29	lorapark-co2-02	2026-04-21T04:56:57
460	6.356	3	1	22	963	3	1	305	0	239	32	lorapark-co2-01	2026-04-21T04:57:31
461	6.316	3	1	22	963	3	1	390	0	237	28	lorapark-co2-02	2026-04-21T05:26:57
462	6.39	3	1	22	963	3	1	306	0	240	32	lorapark-co2-01	2026-04-21T05:27:31
463	6.35	3	1	22	963	3	1	410	0	238	28	lorapark-co2-02	2026-04-21T05:56:58
464	6.373	3	1	22	963	3	1	312	0	241	32	lorapark-co2-01	2026-04-21T05:57:32
465	6.316	3	1	23	963	3	1	443	0	239	29	lorapark-co2-02	2026-04-21T06:26:58
466	6.396	3	1	22	963	3	1	320	0	242	32	lorapark-co2-01	2026-04-21T06:27:32
467	6.316	3	1	23	963	3	1	493	0	240	29	lorapark-co2-02	2026-04-21T06:56:58
468	6.396	3	1	22	963	3	1	320	0	243	32	lorapark-co2-01	2026-04-21T06:57:32
469	6.316	3	1	23	963	3	1	539	0	241	29	lorapark-co2-02	2026-04-21T07:26:59
470	6.373	3	1	23	963	3	1	318	0	244	32	lorapark-co2-01	2026-04-21T07:27:33
471	6.322	3	1	23	963	3	1	565	0	242	29	lorapark-co2-02	2026-04-21T07:56:59
472	6.368	3	1	23	963	3	1	325	0	245	31	lorapark-co2-01	2026-04-21T07:57:33
473	6.316	3	1	23	963	3	1	598	0	243	29	lorapark-co2-02	2026-04-21T08:26:59
474	6.373	3	1	23	963	3	1	342	0	246	31	lorapark-co2-01	2026-04-21T08:27:33
475	6.316	3	1	23	963	3	1	636	0	244	30	lorapark-co2-02	2026-04-21T08:57:00
476	6.322	3	1	23	963	3	1	658	0	245	30	lorapark-co2-02	2026-04-21T09:27:00
477	6.362	3	1	23	963	3	1	668	0	248	32	lorapark-co2-01	2026-04-21T09:27:34
478	6.316	3	1	23	963	3	1	703	0	246	30	lorapark-co2-02	2026-04-21T09:57:00
479	6.356	3	1	23	963	3	1	817	0	249	33	lorapark-co2-01	2026-04-21T09:57:34
480	6.396	3	1	23	964	3	1	1008	1	251	34	lorapark-co2-01	2026-04-21T10:37:35
481	6.316	3	1	23	963	3	1	656	0	248	29	lorapark-co2-02	2026-04-21T10:57:01
482	6.362	3	1	23	964	3	1	857	0	252	33	lorapark-co2-01	2026-04-21T11:07:35
483	6.35	3	1	23	964	3	1	675	0	249	30	lorapark-co2-02	2026-04-21T11:27:02
484	6.356	3	1	23	964	3	1	558	0	253	32	lorapark-co2-01	2026-04-21T11:37:36
485	6.356	3	1	23	964	3	1	669	0	250	30	lorapark-co2-02	2026-04-21T11:57:02
486	6.373	3	1	23	964	3	1	353	0	254	30	lorapark-co2-01	2026-04-21T12:07:36
487	6.311	3	1	23	964	3	1	641	0	251	30	lorapark-co2-02	2026-04-21T12:27:02
488	6.356	3	1	22	964	3	1	340	0	255	29	lorapark-co2-01	2026-04-21T12:37:36
489	6.316	3	1	23	963	3	1	671	0	252	30	lorapark-co2-02	2026-04-21T12:57:03
490	6.39	3	1	22	964	3	1	326	0	0	28	lorapark-co2-01	2026-04-21T13:07:37
491	6.316	3	1	23	963	3	1	641	0	253	30	lorapark-co2-02	2026-04-21T13:27:03
492	6.368	3	1	22	964	3	1	304	0	1	28	lorapark-co2-01	2026-04-21T13:37:37
493	6.345	3	1	23	963	3	1	623	0	254	30	lorapark-co2-02	2026-04-21T13:57:03
494	6.35	3	1	22	964	3	1	310	0	2	29	lorapark-co2-01	2026-04-21T14:07:38
495	6.316	3	1	23	963	3	1	604	0	255	30	lorapark-co2-02	2026-04-21T14:27:04
496	6.39	3	1	22	963	3	1	352	0	3	29	lorapark-co2-01	2026-04-21T14:37:38
497	6.35	3	1	22	963	3	1	379	0	4	30	lorapark-co2-01	2026-04-21T15:07:38
498	6.316	3	1	23	963	3	1	573	0	1	30	lorapark-co2-02	2026-04-21T15:27:04
499	6.368	3	1	22	963	3	1	415	0	5	30	lorapark-co2-01	2026-04-21T15:37:39
500	6.316	3	1	23	963	3	1	544	0	2	29	lorapark-co2-02	2026-04-21T15:57:05
501	6.39	3	1	22	963	3	1	424	0	6	31	lorapark-co2-01	2026-04-21T16:07:39
502	6.339	3	1	24	963	3	1	523	0	3	29	lorapark-co2-02	2026-04-21T16:27:05
503	6.385	3	1	22	963	3	1	422	0	7	31	lorapark-co2-01	2026-04-21T16:37:39
504	6.316	3	1	24	963	3	1	504	0	4	29	lorapark-co2-02	2026-04-21T16:57:06
505	6.322	3	1	24	963	3	1	488	0	5	29	lorapark-co2-02	2026-04-21T17:27:06
506	6.356	3	1	22	964	3	1	413	0	9	32	lorapark-co2-01	2026-04-21T17:37:40
507	6.356	3	1	24	964	3	1	474	0	6	29	lorapark-co2-02	2026-04-21T17:57:06
508	6.362	3	1	22	964	3	1	394	0	10	32	lorapark-co2-01	2026-04-21T18:07:41
509	6.328	3	1	24	964	3	1	460	0	7	29	lorapark-co2-02	2026-04-21T18:27:07
510	6.362	3	1	22	964	3	1	387	0	11	32	lorapark-co2-01	2026-04-21T18:37:41
511	6.316	3	1	23	964	3	1	453	0	8	29	lorapark-co2-02	2026-04-21T18:57:07
512	6.39	3	1	22	964	3	1	379	0	12	32	lorapark-co2-01	2026-04-21T19:07:41
513	6.322	3	1	23	964	3	1	442	0	9	29	lorapark-co2-02	2026-04-21T19:27:07
514	6.362	3	1	22	965	3	1	369	0	13	32	lorapark-co2-01	2026-04-21T19:37:42
515	6.35	3	1	23	965	3	1	431	0	10	29	lorapark-co2-02	2026-04-21T19:57:08
516	6.362	3	1	21	965	3	1	365	0	14	32	lorapark-co2-01	2026-04-21T20:07:42
517	6.316	3	1	23	965	3	1	423	0	11	29	lorapark-co2-02	2026-04-21T20:27:08
518	6.362	3	1	21	965	3	1	353	0	15	33	lorapark-co2-01	2026-04-21T20:37:42
519	6.316	3	1	23	965	3	1	417	0	12	29	lorapark-co2-02	2026-04-21T20:57:09
520	6.35	3	1	21	965	3	1	345	0	16	33	lorapark-co2-01	2026-04-21T21:07:43
521	6.339	3	1	23	965	3	1	411	0	13	29	lorapark-co2-02	2026-04-21T21:27:09
522	6.402	3	1	21	965	3	1	341	0	17	33	lorapark-co2-01	2026-04-21T21:37:43
523	6.322	3	1	23	965	3	1	403	0	14	29	lorapark-co2-02	2026-04-21T21:57:09
524	6.356	3	1	21	965	3	1	332	0	18	33	lorapark-co2-01	2026-04-21T22:07:44
525	6.316	3	1	23	965	3	1	393	0	15	29	lorapark-co2-02	2026-04-21T22:27:10
526	6.356	3	1	21	966	3	1	325	0	19	33	lorapark-co2-01	2026-04-21T22:37:44
527	6.305	3	1	23	966	3	1	392	0	16	29	lorapark-co2-02	2026-04-21T22:57:10
528	6.39	3	1	21	966	3	1	322	0	20	33	lorapark-co2-01	2026-04-21T23:07:44
529	6.316	3	1	23	966	3	1	385	0	17	29	lorapark-co2-02	2026-04-21T23:27:10
530	6.368	3	1	21	966	3	1	319	0	21	33	lorapark-co2-01	2026-04-21T23:37:45
531	6.322	3	1	23	966	3	1	381	0	18	29	lorapark-co2-02	2026-04-21T23:57:11
532	6.356	3	1	21	966	3	1	313	0	22	33	lorapark-co2-01	2026-04-22T00:07:45
533	6.311	3	1	23	966	3	1	375	0	19	29	lorapark-co2-02	2026-04-22T00:27:11
534	6.356	3	1	21	966	3	1	309	0	23	33	lorapark-co2-01	2026-04-22T00:37:45
535	6.328	3	1	23	966	3	1	369	0	20	29	lorapark-co2-02	2026-04-22T00:57:11
536	6.362	3	1	21	966	3	1	302	0	24	33	lorapark-co2-01	2026-04-22T01:07:46
537	6.322	3	1	23	965	3	1	368	0	21	29	lorapark-co2-02	2026-04-22T01:27:12
538	6.385	3	1	21	966	3	1	300	0	25	33	lorapark-co2-01	2026-04-22T01:37:46
539	6.35	3	1	23	966	3	1	366	0	22	29	lorapark-co2-02	2026-04-22T01:57:12
540	6.362	3	1	21	966	3	1	298	0	26	33	lorapark-co2-01	2026-04-22T02:07:47
541	6.311	3	1	23	966	3	1	364	0	23	29	lorapark-co2-02	2026-04-22T02:27:13
542	6.356	3	1	21	966	3	1	297	0	27	32	lorapark-co2-01	2026-04-22T02:37:47
543	6.345	3	1	23	966	3	1	361	0	24	29	lorapark-co2-02	2026-04-22T02:57:13
544	6.362	3	1	21	966	3	1	290	0	28	32	lorapark-co2-01	2026-04-22T03:07:47
545	6.333	3	1	23	966	3	1	357	0	25	29	lorapark-co2-02	2026-04-22T03:27:13
546	6.35	3	1	21	966	3	1	291	0	29	32	lorapark-co2-01	2026-04-22T03:37:48
547	6.345	3	1	23	966	3	1	355	0	26	29	lorapark-co2-02	2026-04-22T03:57:14
548	6.39	3	1	21	966	3	1	290	0	30	32	lorapark-co2-01	2026-04-22T04:07:48
549	6.316	3	1	23	966	3	1	353	0	27	29	lorapark-co2-02	2026-04-22T04:27:14
550	6.379	3	1	22	966	3	1	288	0	31	31	lorapark-co2-01	2026-04-22T04:37:48
551	6.316	3	1	22	966	3	1	355	0	28	28	lorapark-co2-02	2026-04-22T04:57:14
552	6.362	3	1	22	967	3	1	288	0	32	31	lorapark-co2-01	2026-04-22T05:07:49
553	6.345	3	1	23	967	3	1	363	0	29	28	lorapark-co2-02	2026-04-22T05:27:15
554	6.362	3	1	22	967	3	1	290	0	33	31	lorapark-co2-01	2026-04-22T05:37:49
555	6.345	3	1	23	967	3	1	380	0	30	29	lorapark-co2-02	2026-04-22T05:57:15
556	6.373	3	1	22	967	3	1	291	0	34	31	lorapark-co2-01	2026-04-22T06:07:50
557	6.328	3	1	23	967	3	1	414	0	31	29	lorapark-co2-02	2026-04-22T06:27:15
558	6.385	3	1	22	967	3	1	293	0	35	31	lorapark-co2-01	2026-04-22T06:37:50
559	6.345	3	1	23	967	3	1	460	0	32	29	lorapark-co2-02	2026-04-22T06:57:16
560	6.368	3	1	22	967	3	1	301	0	36	31	lorapark-co2-01	2026-04-22T07:07:50
561	6.345	3	1	23	967	3	1	458	0	33	29	lorapark-co2-02	2026-04-22T07:27:16
562	6.362	3	1	23	967	3	1	303	0	37	30	lorapark-co2-01	2026-04-22T07:37:51
563	6.311	3	1	23	967	3	1	454	0	34	28	lorapark-co2-02	2026-04-22T07:57:17
564	6.362	3	1	23	967	3	1	297	0	38	28	lorapark-co2-01	2026-04-22T08:07:51
565	6.339	3	1	23	967	3	1	444	0	35	29	lorapark-co2-02	2026-04-22T08:27:17
566	6.368	3	1	23	968	3	1	288	0	39	26	lorapark-co2-01	2026-04-22T08:37:51
567	6.316	3	1	23	967	3	1	438	0	36	29	lorapark-co2-02	2026-04-22T08:57:17
568	6.35	3	1	23	968	3	1	286	0	40	25	lorapark-co2-01	2026-04-22T09:07:52
569	6.328	3	1	23	967	3	1	434	0	37	28	lorapark-co2-02	2026-04-22T09:27:18
570	6.385	3	1	23	968	3	1	287	0	41	24	lorapark-co2-01	2026-04-22T09:37:52
571	6.322	3	1	23	968	3	1	436	0	38	28	lorapark-co2-02	2026-04-22T09:57:18
572	6.356	3	1	23	968	3	1	295	0	42	24	lorapark-co2-01	2026-04-22T10:07:53
573	6.316	3	1	23	967	3	1	453	0	39	28	lorapark-co2-02	2026-04-22T10:27:18
574	6.356	3	1	23	967	3	1	295	0	43	23	lorapark-co2-01	2026-04-22T10:37:53
575	6.311	3	1	23	967	3	1	475	0	40	27	lorapark-co2-02	2026-04-22T10:57:19
576	6.362	3	1	22	967	3	1	314	0	44	24	lorapark-co2-01	2026-04-22T11:07:53
577	6.322	3	1	23	967	3	1	474	0	41	27	lorapark-co2-02	2026-04-22T11:27:19
578	6.35	3	1	23	967	3	1	354	0	45	26	lorapark-co2-01	2026-04-22T11:37:54
579	6.311	3	1	23	967	3	1	443	0	42	26	lorapark-co2-02	2026-04-22T11:57:19
580	6.362	3	1	23	967	3	1	536	0	46	27	lorapark-co2-01	2026-04-22T12:07:54
581	6.39	3	1	23	967	3	1	843	0	47	29	lorapark-co2-01	2026-04-22T12:22:54
582	6.339	3	1	23	967	3	1	446	0	43	25	lorapark-co2-02	2026-04-22T12:27:20
583	6.368	3	1	23	968	3	1	1044	1	48	30	lorapark-co2-01	2026-04-22T12:37:54
584	6.345	3	1	23	967	3	1	461	0	44	25	lorapark-co2-02	2026-04-22T12:57:20
585	6.368	3	1	23	967	3	1	1380	1	49	32	lorapark-co2-01	2026-04-22T13:02:55
586	6.311	3	1	23	967	3	1	491	0	45	25	lorapark-co2-02	2026-04-22T13:27:21
587	6.368	3	1	23	967	3	1	1513	1	50	33	lorapark-co2-01	2026-04-22T13:32:55
588	6.316	3	1	23	967	3	1	524	0	46	26	lorapark-co2-02	2026-04-22T13:57:21
589	6.35	3	1	24	967	3	1	1306	1	52	32	lorapark-co2-01	2026-04-22T14:22:56
590	6.316	3	1	23	967	3	1	542	0	47	26	lorapark-co2-02	2026-04-22T14:27:21
591	6.356	3	1	24	967	3	1	1493	1	53	33	lorapark-co2-01	2026-04-22T14:52:56
592	6.322	3	1	23	967	3	1	541	0	48	26	lorapark-co2-02	2026-04-22T14:57:22
593	6.345	3	1	23	967	3	1	1185	1	54	32	lorapark-co2-01	2026-04-22T15:02:56
594	6.356	3	1	23	967	3	1	865	0	55	31	lorapark-co2-01	2026-04-22T15:17:56
595	6.311	3	1	24	967	3	1	541	0	49	25	lorapark-co2-02	2026-04-22T15:27:22
596	6.356	3	1	23	967	3	1	690	0	56	31	lorapark-co2-01	2026-04-22T15:47:57
597	6.311	3	1	25	967	3	1	533	0	50	25	lorapark-co2-02	2026-04-22T15:57:22
598	6.362	3	1	23	967	3	1	641	0	57	31	lorapark-co2-01	2026-04-22T16:17:57
599	6.316	3	1	24	967	3	1	531	0	51	25	lorapark-co2-02	2026-04-22T16:27:23
600	6.35	3	1	23	967	3	1	608	0	58	31	lorapark-co2-01	2026-04-22T16:47:58
601	6.339	3	1	24	967	3	1	515	0	52	25	lorapark-co2-02	2026-04-22T16:57:23
602	6.385	3	1	22	967	3	1	578	0	59	31	lorapark-co2-01	2026-04-22T17:17:58
603	6.339	3	1	24	967	3	1	497	0	53	26	lorapark-co2-02	2026-04-22T17:27:23
604	6.356	3	1	22	967	3	1	561	0	60	31	lorapark-co2-01	2026-04-22T17:47:58
605	6.333	3	1	24	967	3	1	485	0	54	26	lorapark-co2-02	2026-04-22T17:57:24
606	6.373	3	1	22	968	3	1	533	0	61	31	lorapark-co2-01	2026-04-22T18:17:59
607	6.311	3	1	24	967	3	1	472	0	55	26	lorapark-co2-02	2026-04-22T18:27:24
608	6.385	3	1	22	968	3	1	520	0	62	31	lorapark-co2-01	2026-04-22T18:47:59
609	6.305	3	1	24	968	3	1	458	0	56	26	lorapark-co2-02	2026-04-22T18:57:25
610	6.39	3	1	22	968	3	1	511	0	63	32	lorapark-co2-01	2026-04-22T19:17:59
611	6.333	3	1	23	968	3	1	452	0	57	26	lorapark-co2-02	2026-04-22T19:27:25
612	6.362	3	1	22	969	3	1	501	0	64	32	lorapark-co2-01	2026-04-22T19:48:00
613	6.333	3	1	23	968	3	1	441	0	58	26	lorapark-co2-02	2026-04-22T19:57:25
614	6.362	3	1	22	969	3	1	495	0	65	32	lorapark-co2-01	2026-04-22T20:18:00
615	6.311	3	1	23	969	3	1	432	0	59	26	lorapark-co2-02	2026-04-22T20:27:26
616	6.379	3	1	22	969	3	1	481	0	66	32	lorapark-co2-01	2026-04-22T20:48:01
617	6.316	3	1	23	969	3	1	425	0	60	26	lorapark-co2-02	2026-04-22T20:57:26
618	6.356	3	1	22	969	3	1	470	0	67	32	lorapark-co2-01	2026-04-22T21:18:01
619	6.311	3	1	23	969	3	1	415	0	61	26	lorapark-co2-02	2026-04-22T21:27:26
620	6.362	3	1	22	969	3	1	461	0	68	32	lorapark-co2-01	2026-04-22T21:48:01
621	6.311	3	1	23	969	3	1	407	0	62	26	lorapark-co2-02	2026-04-22T21:57:27
622	6.362	3	1	22	970	3	1	453	0	69	32	lorapark-co2-01	2026-04-22T22:18:02
623	6.305	3	1	23	969	3	1	403	0	63	26	lorapark-co2-02	2026-04-22T22:27:27
624	6.356	3	1	21	970	3	1	444	0	70	32	lorapark-co2-01	2026-04-22T22:48:02
625	6.35	3	1	23	970	3	1	398	0	64	26	lorapark-co2-02	2026-04-22T22:57:28
626	6.368	3	1	21	970	3	1	432	0	71	32	lorapark-co2-01	2026-04-22T23:18:02
627	6.35	3	1	23	969	3	1	392	0	65	27	lorapark-co2-02	2026-04-22T23:27:28
628	6.345	3	1	21	970	3	1	424	0	72	32	lorapark-co2-01	2026-04-22T23:48:03
629	6.322	3	1	23	970	3	1	391	0	66	26	lorapark-co2-02	2026-04-22T23:57:28
630	6.356	3	1	21	970	3	1	421	0	73	32	lorapark-co2-01	2026-04-23T00:18:03
631	6.311	3	1	23	970	3	1	388	0	67	26	lorapark-co2-02	2026-04-23T00:27:29
632	6.373	3	1	21	970	3	1	414	0	74	32	lorapark-co2-01	2026-04-23T00:48:04
633	6.345	3	1	22	970	3	1	385	0	68	26	lorapark-co2-02	2026-04-23T00:57:29
634	6.356	3	1	21	970	3	1	410	0	75	32	lorapark-co2-01	2026-04-23T01:18:04
635	6.316	3	1	22	970	3	1	382	0	69	26	lorapark-co2-02	2026-04-23T01:27:29
636	6.39	3	1	21	970	3	1	406	0	76	32	lorapark-co2-01	2026-04-23T01:48:04
637	6.316	3	1	22	970	3	1	381	0	70	26	lorapark-co2-02	2026-04-23T01:57:30
638	6.339	3	1	21	970	3	1	399	0	77	32	lorapark-co2-01	2026-04-23T02:18:05
639	6.316	3	1	22	970	3	1	380	0	71	26	lorapark-co2-02	2026-04-23T02:27:30
640	6.385	3	1	21	970	3	1	394	0	78	32	lorapark-co2-01	2026-04-23T02:48:05
641	6.339	3	1	22	970	3	1	377	0	72	26	lorapark-co2-02	2026-04-23T02:57:30
642	6.345	3	1	21	970	3	1	388	0	79	32	lorapark-co2-01	2026-04-23T03:18:05
643	6.316	3	1	22	970	3	1	376	0	73	26	lorapark-co2-02	2026-04-23T03:27:31
644	6.368	3	1	21	970	3	1	383	0	80	32	lorapark-co2-01	2026-04-23T03:48:06
645	6.311	3	1	22	970	3	1	376	0	74	26	lorapark-co2-02	2026-04-23T03:57:31
646	6.356	3	1	22	970	3	1	372	0	81	32	lorapark-co2-01	2026-04-23T04:18:06
647	6.333	3	1	22	970	3	1	374	0	75	26	lorapark-co2-02	2026-04-23T04:27:32
648	6.385	3	1	22	970	3	1	366	0	82	32	lorapark-co2-01	2026-04-23T04:48:07
649	6.316	3	1	22	971	3	1	374	0	77	26	lorapark-co2-02	2026-04-23T05:27:32
650	6.305	3	1	22	971	3	1	382	0	78	25	lorapark-co2-02	2026-04-23T05:57:33
651	6.345	3	1	22	971	3	1	357	0	85	32	lorapark-co2-01	2026-04-23T06:18:08
652	6.316	3	1	22	971	3	1	393	0	79	25	lorapark-co2-02	2026-04-23T06:27:33
653	6.385	3	1	22	971	3	1	356	0	86	32	lorapark-co2-01	2026-04-23T06:48:08
654	6.311	3	1	22	971	3	1	424	0	80	26	lorapark-co2-02	2026-04-23T06:57:33
655	6.368	3	1	22	971	3	1	338	0	87	26	lorapark-co2-01	2026-04-23T07:18:08
656	6.345	3	1	22	971	3	1	458	0	81	26	lorapark-co2-02	2026-04-23T07:27:34
657	6.373	3	1	22	971	3	1	340	0	88	27	lorapark-co2-01	2026-04-23T07:48:09
658	6.316	3	1	22	971	3	1	536	0	82	26	lorapark-co2-02	2026-04-23T07:57:34
659	6.345	3	1	22	971	3	1	357	0	89	27	lorapark-co2-01	2026-04-23T08:18:09
660	6.316	3	1	22	971	3	1	669	0	83	27	lorapark-co2-02	2026-04-23T08:27:34
661	6.356	3	1	22	971	3	1	385	0	90	28	lorapark-co2-01	2026-04-23T08:48:10
662	6.311	3	1	22	971	3	1	723	0	84	27	lorapark-co2-02	2026-04-23T08:57:35
663	6.316	3	1	22	971	3	1	704	0	85	27	lorapark-co2-02	2026-04-23T09:27:35
664	6.362	3	1	22	971	3	1	422	0	92	28	lorapark-co2-01	2026-04-23T09:48:10
665	6.305	3	1	22	971	3	1	705	0	86	27	lorapark-co2-02	2026-04-23T09:57:36
666	6.362	3	1	22	971	3	1	456	0	93	29	lorapark-co2-01	2026-04-23T10:18:11
667	6.322	3	1	22	970	3	1	707	0	87	27	lorapark-co2-02	2026-04-23T10:27:36
668	6.345	3	1	22	970	3	1	489	0	94	30	lorapark-co2-01	2026-04-23T10:48:11
669	6.333	3	1	22	970	3	1	676	0	88	27	lorapark-co2-02	2026-04-23T10:57:36
670	6.368	3	1	22	970	3	1	513	0	95	30	lorapark-co2-01	2026-04-23T11:18:11
671	6.311	3	1	22	970	3	1	571	0	89	26	lorapark-co2-02	2026-04-23T11:27:37
672	6.362	3	1	22	970	3	1	527	0	96	30	lorapark-co2-01	2026-04-23T11:48:12
673	6.311	3	1	22	970	3	1	537	0	90	26	lorapark-co2-02	2026-04-23T11:57:37
674	6.356	3	1	22	970	3	1	505	0	97	30	lorapark-co2-01	2026-04-23T12:18:12
675	6.305	3	1	22	969	3	1	517	0	91	26	lorapark-co2-02	2026-04-23T12:27:37
676	6.356	3	1	22	969	3	1	491	0	98	30	lorapark-co2-01	2026-04-23T12:48:13
677	6.305	3	1	22	969	3	1	510	0	92	25	lorapark-co2-02	2026-04-23T12:57:38
678	6.362	3	1	22	969	3	1	479	0	99	30	lorapark-co2-01	2026-04-23T13:18:13
679	6.316	3	1	23	969	3	1	513	0	93	25	lorapark-co2-02	2026-04-23T13:27:38
680	6.362	3	1	22	969	3	1	479	0	100	30	lorapark-co2-01	2026-04-23T13:48:13
681	6.345	3	1	23	968	3	1	549	0	94	26	lorapark-co2-02	2026-04-23T13:57:38
682	6.356	3	1	22	968	3	1	481	0	101	31	lorapark-co2-01	2026-04-23T14:18:14
683	6.305	3	1	23	968	3	1	553	0	95	26	lorapark-co2-02	2026-04-23T14:27:39
684	6.35	3	1	22	968	3	1	490	0	102	32	lorapark-co2-01	2026-04-23T14:48:14
685	6.305	3	1	23	968	3	1	552	0	96	25	lorapark-co2-02	2026-04-23T14:57:39
686	6.362	3	1	22	968	3	1	496	0	103	32	lorapark-co2-01	2026-04-23T15:18:14
687	6.311	3	1	25	968	3	1	534	0	97	25	lorapark-co2-02	2026-04-23T15:27:40
688	6.356	3	1	22	968	3	1	500	0	104	31	lorapark-co2-01	2026-04-23T15:48:15
689	6.322	3	1	25	967	3	1	522	0	98	24	lorapark-co2-02	2026-04-23T15:57:40
690	6.35	3	1	22	968	3	1	733	0	105	33	lorapark-co2-01	2026-04-23T16:18:15
691	6.339	3	1	25	967	3	1	508	0	99	24	lorapark-co2-02	2026-04-23T16:27:40
692	6.362	3	1	22	967	3	1	965	0	106	35	lorapark-co2-01	2026-04-23T16:48:16
693	6.311	3	1	25	967	3	1	495	0	100	25	lorapark-co2-02	2026-04-23T16:57:41
694	6.299	3	1	24	967	3	1	483	0	101	25	lorapark-co2-02	2026-04-23T17:27:41
695	6.356	3	1	23	967	3	1	1068	1	108	35	lorapark-co2-01	2026-04-23T17:28:16
696	6.316	3	1	24	967	3	1	473	0	102	25	lorapark-co2-02	2026-04-23T17:57:41
697	6.35	3	1	23	967	3	1	1167	1	109	36	lorapark-co2-01	2026-04-23T17:58:16
698	6.328	3	1	24	967	3	1	467	0	103	25	lorapark-co2-02	2026-04-23T18:27:42
699	6.385	3	1	23	967	3	1	1137	1	110	35	lorapark-co2-01	2026-04-23T18:28:17
700	6.311	3	1	24	967	3	1	456	0	104	25	lorapark-co2-02	2026-04-23T18:57:42
701	6.345	3	1	22	968	3	1	1054	1	111	35	lorapark-co2-01	2026-04-23T18:58:17
702	6.305	3	1	24	967	3	1	450	0	105	26	lorapark-co2-02	2026-04-23T19:27:42
703	6.345	3	1	22	968	3	1	1002	1	112	35	lorapark-co2-01	2026-04-23T19:28:18
704	6.339	3	1	23	968	3	1	436	0	106	26	lorapark-co2-02	2026-04-23T19:57:43
705	6.35	3	1	22	968	3	1	963	1	113	35	lorapark-co2-01	2026-04-23T19:58:18
706	6.328	3	1	23	968	3	1	433	0	107	26	lorapark-co2-02	2026-04-23T20:27:43
707	6.368	3	1	22	968	3	1	924	1	114	35	lorapark-co2-01	2026-04-23T20:28:18
708	6.362	3	1	22	968	3	1	893	0	115	35	lorapark-co2-01	2026-04-23T20:48:19
709	6.345	3	1	23	968	3	1	423	0	108	26	lorapark-co2-02	2026-04-23T20:57:44
710	6.35	3	1	22	968	3	1	861	0	116	35	lorapark-co2-01	2026-04-23T21:18:19
711	6.311	3	1	23	968	3	1	417	0	109	26	lorapark-co2-02	2026-04-23T21:27:44
712	6.35	3	1	22	968	3	1	826	0	117	35	lorapark-co2-01	2026-04-23T21:48:19
713	6.311	3	1	23	968	3	1	410	0	110	26	lorapark-co2-02	2026-04-23T21:57:44
714	6.362	3	1	22	968	3	1	788	0	118	35	lorapark-co2-01	2026-04-23T22:18:20
715	6.35	3	1	22	968	3	1	745	0	119	35	lorapark-co2-01	2026-04-23T22:48:20
716	6.311	3	1	23	968	3	1	398	0	112	26	lorapark-co2-02	2026-04-23T22:57:45
717	6.362	3	1	22	968	3	1	709	0	120	35	lorapark-co2-01	2026-04-23T23:18:20
718	6.311	3	1	23	967	3	1	391	0	113	26	lorapark-co2-02	2026-04-23T23:27:45
719	6.362	3	1	22	967	3	1	688	0	121	35	lorapark-co2-01	2026-04-23T23:48:21
720	6.316	3	1	22	967	3	1	391	0	114	26	lorapark-co2-02	2026-04-23T23:57:46
721	6.345	3	1	22	967	3	1	661	0	122	35	lorapark-co2-01	2026-04-24T00:18:21
722	6.311	3	1	22	967	3	1	390	0	115	26	lorapark-co2-02	2026-04-24T00:27:46
723	6.356	3	1	21	967	3	1	644	0	123	35	lorapark-co2-01	2026-04-24T00:48:22
724	6.345	3	1	22	967	3	1	389	0	116	26	lorapark-co2-02	2026-04-24T00:57:47
725	6.362	3	1	21	967	3	1	624	0	124	35	lorapark-co2-01	2026-04-24T01:18:22
726	6.316	3	1	22	967	3	1	387	0	117	27	lorapark-co2-02	2026-04-24T01:27:47
727	6.356	3	1	21	967	3	1	614	0	125	35	lorapark-co2-01	2026-04-24T01:48:22
728	6.311	3	1	22	967	3	1	382	0	118	26	lorapark-co2-02	2026-04-24T01:57:47
729	6.345	3	1	21	967	3	1	594	0	126	35	lorapark-co2-01	2026-04-24T02:18:23
730	6.333	3	1	22	967	3	1	381	0	119	26	lorapark-co2-02	2026-04-24T02:27:48
731	6.356	3	1	21	967	3	1	578	0	127	35	lorapark-co2-01	2026-04-24T02:48:23
732	6.305	3	1	22	966	3	1	380	0	120	26	lorapark-co2-02	2026-04-24T02:57:48
733	6.339	3	1	21	967	3	1	563	0	128	35	lorapark-co2-01	2026-04-24T03:18:23
734	6.311	3	1	22	966	3	1	380	0	121	26	lorapark-co2-02	2026-04-24T03:27:48
735	6.35	3	1	21	966	3	1	546	0	129	35	lorapark-co2-01	2026-04-24T03:48:24
736	6.333	3	1	22	966	3	1	381	0	122	26	lorapark-co2-02	2026-04-24T03:57:49
737	6.35	3	1	22	966	3	1	518	0	130	34	lorapark-co2-01	2026-04-24T04:18:24
738	6.311	3	1	22	966	3	1	380	0	123	26	lorapark-co2-02	2026-04-24T04:27:49
739	6.35	3	1	22	966	3	1	500	0	131	34	lorapark-co2-01	2026-04-24T04:48:25
740	6.305	3	1	22	966	3	1	380	0	124	26	lorapark-co2-02	2026-04-24T04:57:49
741	6.356	3	1	22	966	3	1	485	0	132	34	lorapark-co2-01	2026-04-24T05:18:25
742	6.305	3	1	22	966	3	1	380	0	125	26	lorapark-co2-02	2026-04-24T05:27:50
743	6.35	3	1	22	966	3	1	476	0	133	34	lorapark-co2-01	2026-04-24T05:48:25
744	6.322	3	1	22	966	3	1	382	0	126	26	lorapark-co2-02	2026-04-24T05:57:50
745	6.356	3	1	22	966	3	1	467	0	134	34	lorapark-co2-01	2026-04-24T06:18:26
746	6.311	3	1	22	966	3	1	392	0	127	26	lorapark-co2-02	2026-04-24T06:27:50
747	6.356	3	1	22	966	3	1	458	0	135	33	lorapark-co2-01	2026-04-24T06:48:26
748	6.305	3	1	22	966	3	1	408	0	128	26	lorapark-co2-02	2026-04-24T06:57:51
749	6.345	3	1	23	966	3	1	452	0	136	33	lorapark-co2-01	2026-04-24T07:18:26
750	6.333	3	1	22	966	3	1	434	0	129	26	lorapark-co2-02	2026-04-24T07:27:51
751	6.345	3	1	23	966	3	1	442	0	137	33	lorapark-co2-01	2026-04-24T07:48:27
752	6.305	3	1	23	966	3	1	481	0	130	26	lorapark-co2-02	2026-04-24T07:57:52
753	6.339	3	1	23	966	3	1	436	0	138	33	lorapark-co2-01	2026-04-24T08:18:27
754	6.299	3	1	23	966	3	1	548	0	131	26	lorapark-co2-02	2026-04-24T08:27:52
755	6.305	3	1	23	966	3	1	589	0	132	27	lorapark-co2-02	2026-04-24T08:57:52
756	6.345	3	1	23	966	3	1	422	0	140	32	lorapark-co2-01	2026-04-24T09:18:28
757	6.305	3	1	23	965	3	1	601	0	133	27	lorapark-co2-02	2026-04-24T09:27:53
758	6.379	3	1	23	965	3	1	458	0	141	32	lorapark-co2-01	2026-04-24T09:48:28
759	6.311	3	1	23	965	3	1	611	0	134	27	lorapark-co2-02	2026-04-24T09:57:53
760	6.35	3	1	23	965	3	1	480	0	142	32	lorapark-co2-01	2026-04-24T10:18:29
761	6.316	3	1	23	965	3	1	632	0	135	27	lorapark-co2-02	2026-04-24T10:27:53
762	6.35	3	1	23	965	3	1	502	0	143	32	lorapark-co2-01	2026-04-24T10:48:29
763	6.316	3	1	23	965	3	1	638	0	136	27	lorapark-co2-02	2026-04-24T10:57:54
764	6.35	3	1	23	965	3	1	520	0	144	33	lorapark-co2-01	2026-04-24T11:18:29
765	6.299	3	1	23	964	3	1	634	0	137	27	lorapark-co2-02	2026-04-24T11:27:54
766	6.373	3	1	23	964	3	1	523	0	145	32	lorapark-co2-01	2026-04-24T11:48:30
767	6.333	3	1	23	964	3	1	616	0	138	27	lorapark-co2-02	2026-04-24T11:57:55
768	6.356	3	1	23	964	3	1	531	0	146	33	lorapark-co2-01	2026-04-24T12:18:30
769	6.316	3	1	23	964	3	1	600	0	139	27	lorapark-co2-02	2026-04-24T12:27:55
770	6.35	3	1	23	964	3	1	548	0	147	33	lorapark-co2-01	2026-04-24T12:48:30
771	6.316	3	1	23	964	3	1	588	0	140	27	lorapark-co2-02	2026-04-24T12:57:55
772	6.339	3	1	23	964	3	1	561	0	148	33	lorapark-co2-01	2026-04-24T13:18:31
773	6.333	3	1	23	964	3	1	565	0	141	27	lorapark-co2-02	2026-04-24T13:27:56
774	6.345	3	1	23	964	3	1	571	0	149	33	lorapark-co2-01	2026-04-24T13:48:31
775	6.316	3	1	23	964	3	1	541	0	142	27	lorapark-co2-02	2026-04-24T13:57:56
776	6.39	3	1	23	964	3	1	586	0	150	33	lorapark-co2-01	2026-04-24T14:18:32
777	6.305	3	1	23	963	3	1	530	0	143	27	lorapark-co2-02	2026-04-24T14:27:56
778	6.362	3	1	23	963	3	1	602	0	151	34	lorapark-co2-01	2026-04-24T14:48:32
779	6.339	3	1	23	963	3	1	517	0	144	26	lorapark-co2-02	2026-04-24T14:57:57
780	6.345	3	1	23	963	3	1	629	0	152	34	lorapark-co2-01	2026-04-24T15:18:32
781	6.339	3	1	25	963	3	1	499	0	145	25	lorapark-co2-02	2026-04-24T15:27:57
782	6.35	3	1	23	963	3	1	641	0	153	34	lorapark-co2-01	2026-04-24T15:48:33
783	6.305	3	1	25	963	3	1	485	0	146	25	lorapark-co2-02	2026-04-24T15:57:57
784	6.35	3	1	23	963	3	1	629	0	154	34	lorapark-co2-01	2026-04-24T16:18:33
785	6.305	3	1	25	963	3	1	475	0	147	25	lorapark-co2-02	2026-04-24T16:27:58
786	6.35	3	1	23	963	3	1	615	0	155	34	lorapark-co2-01	2026-04-24T16:48:33
787	6.293	3	1	25	963	3	1	464	0	148	25	lorapark-co2-02	2026-04-24T16:57:58
788	6.362	3	1	23	963	3	1	606	0	156	34	lorapark-co2-01	2026-04-24T17:18:34
789	6.316	3	1	25	963	3	1	456	0	149	25	lorapark-co2-02	2026-04-24T17:27:59
790	6.345	3	1	22	963	3	1	597	0	157	34	lorapark-co2-01	2026-04-24T17:48:34
791	6.305	3	1	24	963	3	1	448	0	150	25	lorapark-co2-02	2026-04-24T17:57:59
792	6.345	3	1	22	963	3	1	588	0	158	34	lorapark-co2-01	2026-04-24T18:18:35
793	6.311	3	1	24	963	3	1	445	0	151	26	lorapark-co2-02	2026-04-24T18:27:59
794	6.35	3	1	22	964	3	1	573	0	159	35	lorapark-co2-01	2026-04-24T18:48:35
795	6.311	3	1	24	963	3	1	442	0	152	26	lorapark-co2-02	2026-04-24T18:58:00
796	6.35	3	1	22	964	3	1	565	0	160	35	lorapark-co2-01	2026-04-24T19:18:35
797	6.333	3	1	24	964	3	1	432	0	153	26	lorapark-co2-02	2026-04-24T19:28:00
798	6.373	3	1	22	964	3	1	556	0	161	35	lorapark-co2-01	2026-04-24T19:48:36
799	6.311	3	1	24	964	3	1	428	0	154	26	lorapark-co2-02	2026-04-24T19:58:00
800	6.368	3	1	22	964	3	1	544	0	162	35	lorapark-co2-01	2026-04-24T20:18:36
801	6.356	3	1	22	964	3	1	531	0	163	35	lorapark-co2-01	2026-04-24T20:48:36
802	6.311	3	1	23	964	3	1	418	0	156	26	lorapark-co2-02	2026-04-24T20:58:01
803	6.345	3	1	22	964	3	1	521	0	164	35	lorapark-co2-01	2026-04-24T21:18:37
804	6.305	3	1	23	964	3	1	413	0	157	26	lorapark-co2-02	2026-04-24T21:28:01
805	6.379	3	1	22	964	3	1	513	0	165	35	lorapark-co2-01	2026-04-24T21:48:37
806	6.339	3	1	23	964	3	1	410	0	158	26	lorapark-co2-02	2026-04-24T21:58:02
807	6.345	3	1	22	964	3	1	500	0	166	35	lorapark-co2-01	2026-04-24T22:18:38
808	6.345	3	1	23	964	3	1	403	0	159	26	lorapark-co2-02	2026-04-24T22:28:02
809	6.35	3	1	23	964	3	1	401	0	160	26	lorapark-co2-02	2026-04-24T22:58:03
810	6.345	3	1	22	964	3	1	471	0	168	35	lorapark-co2-01	2026-04-24T23:18:38
811	6.333	3	1	23	963	3	1	399	0	161	26	lorapark-co2-02	2026-04-24T23:28:03
812	6.345	3	1	22	964	3	1	462	0	169	35	lorapark-co2-01	2026-04-24T23:48:39
813	6.305	3	1	23	963	3	1	395	0	162	26	lorapark-co2-02	2026-04-24T23:58:03
814	6.35	3	1	22	963	3	1	454	0	170	35	lorapark-co2-01	2026-04-25T00:18:39
815	6.305	3	1	23	963	3	1	395	0	163	26	lorapark-co2-02	2026-04-25T00:28:04
816	6.339	3	1	22	963	3	1	444	0	171	35	lorapark-co2-01	2026-04-25T00:48:40
817	6.339	3	1	22	963	3	1	392	0	164	26	lorapark-co2-02	2026-04-25T00:58:04
818	6.345	3	1	22	963	3	1	433	0	172	35	lorapark-co2-01	2026-04-25T01:18:40
819	6.305	3	1	22	963	3	1	391	0	165	26	lorapark-co2-02	2026-04-25T01:28:04
820	6.35	3	1	22	963	3	1	427	0	173	35	lorapark-co2-01	2026-04-25T01:48:40
821	6.345	3	1	22	963	3	1	422	0	174	34	lorapark-co2-01	2026-04-25T02:18:41
822	6.333	3	1	22	963	3	1	387	0	167	26	lorapark-co2-02	2026-04-25T02:28:05
823	6.373	3	1	22	963	3	1	413	0	175	34	lorapark-co2-01	2026-04-25T02:48:41
824	6.333	3	1	22	963	3	1	386	0	168	26	lorapark-co2-02	2026-04-25T02:58:05
825	6.362	3	1	21	963	3	1	411	0	176	34	lorapark-co2-01	2026-04-25T03:18:41
826	6.305	3	1	22	963	3	1	387	0	169	26	lorapark-co2-02	2026-04-25T03:28:06
827	6.379	3	1	21	963	3	1	407	0	177	34	lorapark-co2-01	2026-04-25T03:48:42
828	6.339	3	1	22	963	3	1	388	0	170	26	lorapark-co2-02	2026-04-25T03:58:06
829	6.35	3	1	21	963	3	1	404	0	178	34	lorapark-co2-01	2026-04-25T04:18:42
830	6.345	3	1	22	963	3	1	389	0	171	25	lorapark-co2-02	2026-04-25T04:28:07
831	6.35	3	1	21	963	3	1	394	0	179	34	lorapark-co2-01	2026-04-25T04:48:42
832	6.339	3	1	21	963	3	1	390	0	180	34	lorapark-co2-01	2026-04-25T05:18:43
833	6.311	3	1	22	963	3	1	388	0	173	25	lorapark-co2-02	2026-04-25T05:28:07
834	6.356	3	1	21	963	3	1	386	0	181	34	lorapark-co2-01	2026-04-25T05:48:43
835	6.299	3	1	22	963	3	1	389	0	174	25	lorapark-co2-02	2026-04-25T05:58:08
836	6.35	3	1	22	963	3	1	383	0	182	33	lorapark-co2-01	2026-04-25T06:18:44
837	6.333	3	1	22	963	3	1	396	0	175	26	lorapark-co2-02	2026-04-25T06:28:08
838	6.339	3	1	22	963	3	1	373	0	183	32	lorapark-co2-01	2026-04-25T06:48:44
839	6.288	3	1	22	963	3	1	411	0	176	26	lorapark-co2-02	2026-04-25T06:58:08
840	6.35	3	1	22	963	3	1	373	0	184	32	lorapark-co2-01	2026-04-25T07:18:44
841	6.293	3	1	22	963	3	1	423	0	177	26	lorapark-co2-02	2026-04-25T07:28:09
842	6.339	3	1	23	963	3	1	382	0	185	32	lorapark-co2-01	2026-04-25T07:48:45
843	6.305	3	1	22	963	3	1	423	0	178	26	lorapark-co2-02	2026-04-25T07:58:09
844	6.356	3	1	23	963	3	1	380	0	186	32	lorapark-co2-01	2026-04-25T08:18:45
845	6.316	3	1	22	963	3	1	420	0	179	26	lorapark-co2-02	2026-04-25T08:28:09
846	6.368	3	1	23	963	3	1	378	0	187	32	lorapark-co2-01	2026-04-25T08:48:45
847	6.328	3	1	22	963	3	1	418	0	180	26	lorapark-co2-02	2026-04-25T08:58:10
848	6.339	3	1	23	963	3	1	372	0	188	32	lorapark-co2-01	2026-04-25T09:18:46
849	6.311	3	1	22	963	3	1	416	0	181	26	lorapark-co2-02	2026-04-25T09:28:10
850	6.356	3	1	23	963	3	1	366	0	189	32	lorapark-co2-01	2026-04-25T09:48:46
851	6.305	3	1	22	962	3	1	413	0	182	26	lorapark-co2-02	2026-04-25T09:58:11
852	6.35	3	1	23	962	3	1	362	0	190	32	lorapark-co2-01	2026-04-25T10:18:47
853	6.311	3	1	22	962	3	1	414	0	183	26	lorapark-co2-02	2026-04-25T10:28:11
854	6.345	3	1	23	962	3	1	364	0	191	32	lorapark-co2-01	2026-04-25T10:48:47
855	6.311	3	1	22	962	3	1	416	0	184	26	lorapark-co2-02	2026-04-25T10:58:11
856	6.339	3	1	23	962	3	1	364	0	192	33	lorapark-co2-01	2026-04-25T11:18:47
857	6.333	3	1	22	962	3	1	423	0	185	27	lorapark-co2-02	2026-04-25T11:28:12
858	6.333	3	1	23	962	3	1	369	0	193	33	lorapark-co2-01	2026-04-25T11:48:48
859	6.293	3	1	22	961	3	1	427	0	186	27	lorapark-co2-02	2026-04-25T11:58:12
860	6.373	3	1	23	961	3	1	370	0	194	33	lorapark-co2-01	2026-04-25T12:18:48
861	6.328	3	1	22	961	3	1	433	0	187	27	lorapark-co2-02	2026-04-25T12:28:12
862	6.345	3	1	23	961	3	1	372	0	195	33	lorapark-co2-01	2026-04-25T12:48:48
863	6.316	3	1	23	961	3	1	439	0	188	27	lorapark-co2-02	2026-04-25T12:58:13
864	6.35	3	1	23	961	3	1	380	0	196	33	lorapark-co2-01	2026-04-25T13:18:49
865	6.322	3	1	23	961	3	1	441	0	189	27	lorapark-co2-02	2026-04-25T13:28:13
866	6.345	3	1	23	961	3	1	378	0	197	33	lorapark-co2-01	2026-04-25T13:48:49
867	6.311	3	1	23	961	3	1	441	0	190	27	lorapark-co2-02	2026-04-25T13:58:14
868	6.368	3	1	23	961	3	1	374	0	198	33	lorapark-co2-01	2026-04-25T14:18:50
869	6.305	3	1	23	961	3	1	441	0	191	26	lorapark-co2-02	2026-04-25T14:28:14
870	6.35	3	1	23	961	3	1	358	0	199	32	lorapark-co2-01	2026-04-25T14:48:50
871	6.299	3	1	23	961	3	1	429	0	192	26	lorapark-co2-02	2026-04-25T14:58:14
872	6.35	3	1	23	961	3	1	340	0	200	32	lorapark-co2-01	2026-04-25T15:18:50
873	6.311	3	1	25	961	3	1	415	0	193	25	lorapark-co2-02	2026-04-25T15:28:15
874	6.333	3	1	23	961	3	1	329	0	201	31	lorapark-co2-01	2026-04-25T15:48:51
875	6.305	3	1	25	961	3	1	407	0	194	25	lorapark-co2-02	2026-04-25T15:58:15
876	6.345	3	1	22	961	3	1	316	0	202	31	lorapark-co2-01	2026-04-25T16:18:51
877	6.305	3	1	25	961	3	1	403	0	195	25	lorapark-co2-02	2026-04-25T16:28:15
878	6.379	3	1	22	961	3	1	311	0	203	31	lorapark-co2-01	2026-04-25T16:48:51
879	6.305	3	1	25	961	3	1	401	0	196	25	lorapark-co2-02	2026-04-25T16:58:16
880	6.345	3	1	22	961	3	1	303	0	204	31	lorapark-co2-01	2026-04-25T17:18:52
881	6.316	3	1	25	961	3	1	397	0	197	25	lorapark-co2-02	2026-04-25T17:28:16
882	6.362	3	1	22	961	3	1	297	0	205	31	lorapark-co2-01	2026-04-25T17:48:52
883	6.345	3	1	22	962	3	1	289	0	206	30	lorapark-co2-01	2026-04-25T18:18:53
884	6.305	3	1	24	961	3	1	393	0	199	26	lorapark-co2-02	2026-04-25T18:28:17
885	6.35	3	1	22	962	3	1	284	0	207	30	lorapark-co2-01	2026-04-25T18:48:53
886	6.316	3	1	24	962	3	1	390	0	200	26	lorapark-co2-02	2026-04-25T18:58:17
887	6.356	3	1	22	962	3	1	282	0	208	30	lorapark-co2-01	2026-04-25T19:18:53
888	6.333	3	1	24	962	3	1	387	0	201	26	lorapark-co2-02	2026-04-25T19:28:17
889	6.345	3	1	22	963	3	1	283	0	209	30	lorapark-co2-01	2026-04-25T19:48:54
890	6.339	3	1	24	963	3	1	378	0	202	26	lorapark-co2-02	2026-04-25T19:58:18
891	6.35	3	1	22	963	3	1	283	0	210	30	lorapark-co2-01	2026-04-25T20:18:54
892	6.311	3	1	23	963	3	1	377	0	203	26	lorapark-co2-02	2026-04-25T20:28:18
893	6.35	3	1	22	963	3	1	283	0	211	30	lorapark-co2-01	2026-04-25T20:48:54
894	6.328	3	1	23	963	3	1	376	0	204	26	lorapark-co2-02	2026-04-25T20:58:19
895	6.373	3	1	22	964	3	1	282	0	212	30	lorapark-co2-01	2026-04-25T21:18:55
896	6.311	3	1	23	963	3	1	374	0	205	26	lorapark-co2-02	2026-04-25T21:28:19
897	6.339	3	1	22	964	3	1	282	0	213	30	lorapark-co2-01	2026-04-25T21:48:55
898	6.316	3	1	23	963	3	1	373	0	206	26	lorapark-co2-02	2026-04-25T21:58:19
899	6.385	3	1	22	964	3	1	284	0	214	30	lorapark-co2-01	2026-04-25T22:18:56
900	6.333	3	1	23	964	3	1	373	0	207	26	lorapark-co2-02	2026-04-25T22:28:20
901	6.339	3	1	22	964	3	1	289	0	215	30	lorapark-co2-01	2026-04-25T22:48:56
902	6.305	3	1	23	964	3	1	372	0	208	26	lorapark-co2-02	2026-04-25T22:58:20
903	6.368	3	1	22	964	3	1	289	0	216	30	lorapark-co2-01	2026-04-25T23:18:56
904	6.305	3	1	23	964	3	1	371	0	209	26	lorapark-co2-02	2026-04-25T23:28:20
905	6.339	3	1	22	964	3	1	291	0	217	30	lorapark-co2-01	2026-04-25T23:48:57
906	6.333	3	1	23	964	3	1	371	0	210	26	lorapark-co2-02	2026-04-25T23:58:21
907	6.35	3	1	22	964	3	1	292	0	218	30	lorapark-co2-01	2026-04-26T00:18:57
908	6.299	3	1	23	964	3	1	370	0	211	26	lorapark-co2-02	2026-04-26T00:28:21
909	6.345	3	1	22	965	3	1	293	0	219	30	lorapark-co2-01	2026-04-26T00:48:57
910	6.305	3	1	23	965	3	1	369	0	212	26	lorapark-co2-02	2026-04-26T00:58:22
911	6.339	3	1	22	965	3	1	294	0	220	29	lorapark-co2-01	2026-04-26T01:18:58
912	6.305	3	1	23	965	3	1	367	0	213	26	lorapark-co2-02	2026-04-26T01:28:22
913	6.35	3	1	22	965	3	1	293	0	221	29	lorapark-co2-01	2026-04-26T01:48:58
914	6.299	3	1	22	965	3	1	367	0	214	26	lorapark-co2-02	2026-04-26T01:58:22
915	6.356	3	1	22	965	3	1	297	0	222	29	lorapark-co2-01	2026-04-26T02:18:59
916	6.322	3	1	22	965	3	1	368	0	215	26	lorapark-co2-02	2026-04-26T02:28:23
917	6.345	3	1	22	965	3	1	298	0	223	29	lorapark-co2-01	2026-04-26T02:48:59
918	6.305	3	1	22	965	3	1	366	0	216	26	lorapark-co2-02	2026-04-26T02:58:23
919	6.339	3	1	21	966	3	1	298	0	224	29	lorapark-co2-01	2026-04-26T03:18:59
920	6.305	3	1	22	966	3	1	368	0	217	26	lorapark-co2-02	2026-04-26T03:28:23
921	6.339	3	1	21	966	3	1	298	0	225	29	lorapark-co2-01	2026-04-26T03:49:00
922	6.35	3	1	21	966	3	1	299	0	226	29	lorapark-co2-01	2026-04-26T04:19:00
923	6.333	3	1	22	966	3	1	370	0	219	26	lorapark-co2-02	2026-04-26T04:28:24
924	6.345	3	1	21	966	3	1	299	0	227	29	lorapark-co2-01	2026-04-26T04:49:00
925	6.311	3	1	22	966	3	1	370	0	220	25	lorapark-co2-02	2026-04-26T04:58:24
926	6.35	3	1	21	967	3	1	300	0	228	29	lorapark-co2-01	2026-04-26T05:19:01
927	6.311	3	1	22	967	3	1	370	0	221	25	lorapark-co2-02	2026-04-26T05:28:25
928	6.339	3	1	21	967	3	1	301	0	229	29	lorapark-co2-01	2026-04-26T05:49:01
929	6.333	3	1	22	967	3	1	371	0	222	25	lorapark-co2-02	2026-04-26T05:58:25
930	6.339	3	1	22	967	3	1	302	0	230	28	lorapark-co2-01	2026-04-26T06:19:02
931	6.305	3	1	23	967	3	1	372	0	223	25	lorapark-co2-02	2026-04-26T06:28:26
932	6.339	3	1	22	967	3	1	300	0	231	28	lorapark-co2-01	2026-04-26T06:49:02
933	6.305	3	1	23	967	3	1	371	0	224	25	lorapark-co2-02	2026-04-26T06:58:26
934	6.305	3	1	23	967	3	1	371	0	225	25	lorapark-co2-02	2026-04-26T07:28:26
935	6.339	3	1	22	967	3	1	300	0	233	28	lorapark-co2-01	2026-04-26T07:49:03
936	6.299	3	1	23	967	3	1	371	0	226	25	lorapark-co2-02	2026-04-26T07:58:27
937	6.35	3	1	23	967	3	1	295	0	234	28	lorapark-co2-01	2026-04-26T08:19:03
938	6.328	3	1	23	967	3	1	369	0	227	25	lorapark-co2-02	2026-04-26T08:28:27
939	6.345	3	1	23	967	3	1	294	0	235	28	lorapark-co2-01	2026-04-26T08:49:03
940	6.293	3	1	23	967	3	1	367	0	228	25	lorapark-co2-02	2026-04-26T08:58:27
941	6.373	3	1	23	967	3	1	293	0	236	29	lorapark-co2-01	2026-04-26T09:19:04
942	6.339	3	1	23	967	3	1	366	0	229	25	lorapark-co2-02	2026-04-26T09:28:28
943	6.362	3	1	23	967	3	1	293	0	237	29	lorapark-co2-01	2026-04-26T09:49:04
944	6.333	3	1	23	967	3	1	365	0	230	25	lorapark-co2-02	2026-04-26T09:58:28
945	6.345	3	1	23	967	3	1	292	0	238	29	lorapark-co2-01	2026-04-26T10:19:05
946	6.328	3	1	23	967	3	1	364	0	231	25	lorapark-co2-02	2026-04-26T10:28:28
947	6.345	3	1	22	967	3	1	292	0	239	29	lorapark-co2-01	2026-04-26T10:49:05
948	6.299	3	1	23	967	3	1	361	0	232	26	lorapark-co2-02	2026-04-26T10:58:29
949	6.373	3	1	22	967	3	1	289	0	240	29	lorapark-co2-01	2026-04-26T11:19:05
950	6.305	3	1	23	966	3	1	362	0	233	26	lorapark-co2-02	2026-04-26T11:28:29
951	6.345	3	1	22	966	3	1	294	0	241	29	lorapark-co2-01	2026-04-26T11:49:06
952	6.311	3	1	23	966	3	1	360	0	234	26	lorapark-co2-02	2026-04-26T11:58:30
953	6.35	3	1	22	966	3	1	291	0	242	29	lorapark-co2-01	2026-04-26T12:19:06
954	6.299	3	1	23	966	3	1	357	0	235	26	lorapark-co2-02	2026-04-26T12:28:30
955	6.345	3	1	22	966	3	1	286	0	243	29	lorapark-co2-01	2026-04-26T12:49:06
956	6.333	3	1	23	966	3	1	356	0	236	26	lorapark-co2-02	2026-04-26T12:58:30
957	6.322	3	1	23	966	3	1	355	0	237	26	lorapark-co2-02	2026-04-26T13:28:31
958	6.368	3	1	22	966	3	1	275	0	245	28	lorapark-co2-01	2026-04-26T13:49:07
959	6.316	3	1	23	966	3	1	354	0	238	26	lorapark-co2-02	2026-04-26T13:58:31
960	6.339	3	1	22	965	3	1	274	0	246	28	lorapark-co2-01	2026-04-26T14:19:08
961	6.333	3	1	23	965	3	1	353	0	239	26	lorapark-co2-02	2026-04-26T14:28:31
962	6.333	3	1	22	965	3	1	269	0	247	28	lorapark-co2-01	2026-04-26T14:49:08
963	6.305	3	1	23	965	3	1	351	0	240	26	lorapark-co2-02	2026-04-26T14:58:32
964	6.373	3	1	22	965	3	1	266	0	248	28	lorapark-co2-01	2026-04-26T15:19:08
965	6.311	3	1	24	965	3	1	349	0	241	26	lorapark-co2-02	2026-04-26T15:28:32
966	6.373	3	1	22	965	3	1	264	0	249	28	lorapark-co2-01	2026-04-26T15:49:09
967	6.288	3	1	25	965	3	1	347	0	242	25	lorapark-co2-02	2026-04-26T15:58:32
968	6.373	3	1	22	965	3	1	263	0	250	28	lorapark-co2-01	2026-04-26T16:19:09
969	6.328	3	1	25	965	3	1	345	0	243	25	lorapark-co2-02	2026-04-26T16:28:33
970	6.339	3	1	22	965	3	1	261	0	251	27	lorapark-co2-01	2026-04-26T16:49:09
971	6.328	3	1	24	965	3	1	342	0	244	25	lorapark-co2-02	2026-04-26T16:58:33
972	6.373	3	1	22	965	3	1	258	0	252	26	lorapark-co2-01	2026-04-26T17:19:10
973	6.322	3	1	24	965	3	1	343	0	245	25	lorapark-co2-02	2026-04-26T17:28:34
974	6.345	3	1	22	965	3	1	257	0	253	27	lorapark-co2-01	2026-04-26T17:49:10
975	6.299	3	1	24	965	3	1	343	0	246	25	lorapark-co2-02	2026-04-26T17:58:34
976	6.345	3	1	22	965	3	1	257	0	254	27	lorapark-co2-01	2026-04-26T18:19:11
977	6.299	3	1	24	965	3	1	344	0	247	26	lorapark-co2-02	2026-04-26T18:28:34
978	6.339	3	1	22	966	3	1	257	0	255	27	lorapark-co2-01	2026-04-26T18:49:11
979	6.333	3	1	24	966	3	1	344	0	248	26	lorapark-co2-02	2026-04-26T18:58:35
980	6.345	3	1	22	966	3	1	257	0	0	28	lorapark-co2-01	2026-04-26T19:19:11
981	6.311	3	1	24	966	3	1	343	0	249	26	lorapark-co2-02	2026-04-26T19:28:35
982	6.35	3	1	22	967	3	1	258	0	1	28	lorapark-co2-01	2026-04-26T19:49:12
983	6.328	3	1	24	966	3	1	341	0	250	26	lorapark-co2-02	2026-04-26T19:58:35
984	6.379	3	1	22	967	3	1	259	0	2	28	lorapark-co2-01	2026-04-26T20:19:12
985	6.299	3	1	24	967	3	1	342	0	251	26	lorapark-co2-02	2026-04-26T20:28:36
986	6.373	3	1	22	967	3	1	260	0	3	28	lorapark-co2-01	2026-04-26T20:49:12
987	6.333	3	1	23	967	3	1	342	0	252	26	lorapark-co2-02	2026-04-26T20:58:36
988	6.345	3	1	22	967	3	1	261	0	4	28	lorapark-co2-01	2026-04-26T21:19:13
989	6.299	3	1	23	967	3	1	342	0	253	26	lorapark-co2-02	2026-04-26T21:28:36
990	6.368	3	1	22	967	3	1	262	0	5	28	lorapark-co2-01	2026-04-26T21:49:13
991	6.328	3	1	23	966	3	1	341	0	254	26	lorapark-co2-02	2026-04-26T21:58:37
992	6.368	3	1	22	967	3	1	267	0	6	28	lorapark-co2-01	2026-04-26T22:19:14
993	6.328	3	1	23	967	3	1	342	0	255	26	lorapark-co2-02	2026-04-26T22:28:37
994	6.333	3	1	22	967	3	1	268	0	7	28	lorapark-co2-01	2026-04-26T22:49:14
995	6.293	3	1	23	967	3	1	343	0	0	26	lorapark-co2-02	2026-04-26T22:58:38
996	6.345	3	1	22	967	3	1	270	0	8	28	lorapark-co2-01	2026-04-26T23:19:14
997	6.305	3	1	23	966	3	1	343	0	1	27	lorapark-co2-02	2026-04-26T23:28:38
998	6.339	3	1	22	967	3	1	277	0	9	29	lorapark-co2-01	2026-04-26T23:49:15
999	6.305	3	1	23	966	3	1	346	0	2	27	lorapark-co2-02	2026-04-26T23:58:38
1000	6.35	3	1	22	967	3	1	283	0	10	29	lorapark-co2-01	2026-04-27T00:19:15
1001	6.333	3	1	23	966	3	1	347	0	3	27	lorapark-co2-02	2026-04-27T00:28:39
1002	6.339	3	1	21	966	3	1	285	0	11	29	lorapark-co2-01	2026-04-27T00:49:15
1003	6.293	3	1	23	966	3	1	348	0	4	27	lorapark-co2-02	2026-04-27T00:58:39
1004	6.339	3	1	21	966	3	1	286	0	12	29	lorapark-co2-01	2026-04-27T01:19:16
1005	6.305	3	1	23	966	3	1	350	0	5	27	lorapark-co2-02	2026-04-27T01:28:39
1006	6.345	3	1	21	966	3	1	288	0	13	29	lorapark-co2-01	2026-04-27T01:49:16
1007	6.299	3	1	23	966	3	1	351	0	6	27	lorapark-co2-02	2026-04-27T01:58:40
1008	6.333	3	1	21	966	3	1	288	0	14	29	lorapark-co2-01	2026-04-27T02:19:17
1009	6.311	3	1	22	966	3	1	353	0	7	27	lorapark-co2-02	2026-04-27T02:28:40
1010	6.328	3	1	21	966	3	1	289	0	15	29	lorapark-co2-01	2026-04-27T02:49:17
1011	6.333	3	1	22	966	3	1	356	0	8	27	lorapark-co2-02	2026-04-27T02:58:40
1012	6.339	3	1	21	966	3	1	295	0	16	28	lorapark-co2-01	2026-04-27T03:19:17
1013	6.305	3	1	22	966	3	1	360	0	9	27	lorapark-co2-02	2026-04-27T03:28:41
1014	6.379	3	1	21	966	3	1	298	0	17	28	lorapark-co2-01	2026-04-27T03:49:18
1015	6.305	3	1	23	966	3	1	362	0	10	26	lorapark-co2-02	2026-04-27T03:58:41
1016	6.339	3	1	22	966	3	1	302	0	18	28	lorapark-co2-01	2026-04-27T04:19:18
1017	6.293	3	1	23	966	3	1	365	0	11	26	lorapark-co2-02	2026-04-27T04:28:42
1018	6.368	3	1	22	966	3	1	303	0	19	27	lorapark-co2-01	2026-04-27T04:49:18
1019	6.288	3	1	23	966	3	1	369	0	12	26	lorapark-co2-02	2026-04-27T04:58:42
1020	6.339	3	1	22	967	3	1	306	0	20	27	lorapark-co2-01	2026-04-27T05:19:19
1021	6.328	3	1	23	966	3	1	377	0	13	26	lorapark-co2-02	2026-04-27T05:28:42
1022	6.345	3	1	22	966	3	1	310	0	21	27	lorapark-co2-01	2026-04-27T05:49:19
1023	6.305	3	1	23	966	3	1	395	0	14	26	lorapark-co2-02	2026-04-27T05:58:43
1024	6.379	3	1	22	967	3	1	311	0	22	27	lorapark-co2-01	2026-04-27T06:19:20
1025	6.311	3	1	23	966	3	1	402	0	15	26	lorapark-co2-02	2026-04-27T06:28:43
1026	6.339	3	1	23	967	3	1	309	0	23	26	lorapark-co2-01	2026-04-27T06:49:20
1027	6.299	3	1	23	966	3	1	408	0	16	26	lorapark-co2-02	2026-04-27T06:58:43
1028	6.339	3	1	23	966	3	1	301	0	24	26	lorapark-co2-01	2026-04-27T07:19:20
1029	6.299	3	1	23	966	3	1	417	0	17	26	lorapark-co2-02	2026-04-27T07:28:44
1030	6.379	3	1	23	966	3	1	292	0	25	26	lorapark-co2-01	2026-04-27T07:49:21
1031	6.299	3	1	23	966	3	1	428	0	18	26	lorapark-co2-02	2026-04-27T07:58:44
1032	6.345	3	1	23	966	3	1	295	0	26	25	lorapark-co2-01	2026-04-27T08:19:21
1033	6.305	3	1	23	966	3	1	432	0	19	26	lorapark-co2-02	2026-04-27T08:28:44
1034	6.339	3	1	23	966	3	1	294	0	27	25	lorapark-co2-01	2026-04-27T08:49:21
1035	6.322	3	1	23	966	3	1	441	0	20	26	lorapark-co2-02	2026-04-27T08:58:45
1036	6.345	3	1	23	966	3	1	287	0	28	25	lorapark-co2-01	2026-04-27T09:19:22
1037	6.311	3	1	23	966	3	1	441	0	21	26	lorapark-co2-02	2026-04-27T09:28:45
1038	6.368	3	1	23	966	3	1	283	0	29	26	lorapark-co2-01	2026-04-27T09:49:22
1039	6.293	3	1	23	966	3	1	465	0	22	26	lorapark-co2-02	2026-04-27T09:58:46
1040	6.339	3	1	23	966	3	1	282	0	30	26	lorapark-co2-01	2026-04-27T10:19:23
1041	6.333	3	1	23	966	3	1	467	0	23	26	lorapark-co2-02	2026-04-27T10:28:46
1042	6.333	3	1	23	965	3	1	285	0	31	26	lorapark-co2-01	2026-04-27T10:49:23
1043	6.333	3	1	23	965	3	1	455	0	24	26	lorapark-co2-02	2026-04-27T10:58:46
1044	6.339	3	1	23	965	3	1	292	0	32	26	lorapark-co2-01	2026-04-27T11:19:23
1045	6.288	3	1	24	965	3	1	441	0	25	26	lorapark-co2-02	2026-04-27T11:28:47
1046	6.339	3	1	23	965	3	1	297	0	33	27	lorapark-co2-01	2026-04-27T11:49:24
1047	6.305	3	1	24	965	3	1	436	0	26	25	lorapark-co2-02	2026-04-27T11:58:47
1048	6.339	3	1	23	965	3	1	304	0	34	27	lorapark-co2-01	2026-04-27T12:19:24
1049	6.333	3	1	24	965	3	1	435	0	27	25	lorapark-co2-02	2026-04-27T12:28:47
1050	6.373	3	1	22	965	3	1	293	0	35	23	lorapark-co2-01	2026-04-27T12:49:24
1051	6.311	3	1	24	964	3	1	537	0	28	26	lorapark-co2-02	2026-04-27T12:58:48
1052	6.362	3	1	23	964	3	1	683	0	36	29	lorapark-co2-01	2026-04-27T13:14:25
1053	6.299	3	1	24	964	3	1	520	0	29	26	lorapark-co2-02	2026-04-27T13:28:48
1054	6.339	3	1	23	964	3	1	992	0	37	32	lorapark-co2-01	2026-04-27T13:34:25
1055	6.333	3	1	23	964	3	1	1067	1	38	32	lorapark-co2-01	2026-04-27T13:39:25
1056	6.293	3	1	24	964	3	1	489	0	30	26	lorapark-co2-02	2026-04-27T13:58:49
1057	6.35	3	1	24	964	3	1	1379	1	39	34	lorapark-co2-01	2026-04-27T13:59:25
1058	6.299	3	1	24	963	3	1	470	0	31	26	lorapark-co2-02	2026-04-27T14:28:49
1059	6.345	3	1	24	964	3	1	838	0	41	29	lorapark-co2-01	2026-04-27T14:29:26
1060	6.328	3	1	24	963	3	1	468	0	32	26	lorapark-co2-02	2026-04-27T14:58:49
1061	6.368	3	1	23	964	3	1	539	0	42	28	lorapark-co2-01	2026-04-27T14:59:26
1062	6.299	3	1	24	963	3	1	470	0	33	26	lorapark-co2-02	2026-04-27T15:28:50
1063	6.345	3	1	23	963	3	1	503	0	43	28	lorapark-co2-01	2026-04-27T15:29:26
1064	6.328	3	1	24	963	3	1	470	0	34	26	lorapark-co2-02	2026-04-27T15:58:50
1065	6.333	3	1	23	963	3	1	467	0	44	28	lorapark-co2-01	2026-04-27T15:59:27
1066	6.293	3	1	24	963	3	1	468	0	35	26	lorapark-co2-02	2026-04-27T16:28:50
1067	6.35	3	1	23	963	3	1	429	0	45	28	lorapark-co2-01	2026-04-27T16:29:27
1068	6.328	3	1	24	963	3	1	466	0	36	26	lorapark-co2-02	2026-04-27T16:58:51
1069	6.356	3	1	23	963	3	1	394	0	46	28	lorapark-co2-01	2026-04-27T16:59:27
1070	6.299	3	1	24	963	3	1	460	0	37	26	lorapark-co2-02	2026-04-27T17:28:51
1071	6.35	3	1	23	963	3	1	368	0	47	28	lorapark-co2-01	2026-04-27T17:29:28
1072	6.328	3	1	24	963	3	1	456	0	38	26	lorapark-co2-02	2026-04-27T17:58:51
1073	6.339	3	1	23	963	3	1	355	0	48	28	lorapark-co2-01	2026-04-27T17:59:28
1074	6.328	3	1	24	963	3	1	447	0	39	26	lorapark-co2-02	2026-04-27T18:28:52
1075	6.339	3	1	23	963	3	1	336	0	49	28	lorapark-co2-01	2026-04-27T18:29:29
1076	6.299	3	1	24	963	3	1	440	0	40	26	lorapark-co2-02	2026-04-27T18:58:52
1077	6.345	3	1	23	963	3	1	327	0	50	28	lorapark-co2-01	2026-04-27T18:59:29
1078	6.293	3	1	24	963	3	1	433	0	41	26	lorapark-co2-02	2026-04-27T19:28:53
1079	6.333	3	1	22	963	3	1	319	0	51	28	lorapark-co2-01	2026-04-27T19:29:29
1080	6.299	3	1	24	963	3	1	425	0	42	26	lorapark-co2-02	2026-04-27T19:58:53
1081	6.345	3	1	22	963	3	1	306	0	52	27	lorapark-co2-01	2026-04-27T19:59:30
1082	6.288	3	1	24	963	3	1	414	0	43	26	lorapark-co2-02	2026-04-27T20:28:53
1083	6.35	3	1	22	963	3	1	301	0	53	27	lorapark-co2-01	2026-04-27T20:29:30
1084	6.328	3	1	23	963	3	1	409	0	44	26	lorapark-co2-02	2026-04-27T20:58:54
1085	6.333	3	1	22	963	3	1	296	0	54	27	lorapark-co2-01	2026-04-27T20:59:30
1086	6.299	3	1	23	963	3	1	399	0	45	26	lorapark-co2-02	2026-04-27T21:28:54
1087	6.339	3	1	22	963	3	1	288	0	55	27	lorapark-co2-01	2026-04-27T21:29:31
1088	6.293	3	1	23	963	3	1	393	0	46	26	lorapark-co2-02	2026-04-27T21:58:54
1089	6.373	3	1	22	963	3	1	287	0	56	27	lorapark-co2-01	2026-04-27T21:59:31
1090	6.299	3	1	23	963	3	1	390	0	47	26	lorapark-co2-02	2026-04-27T22:28:55
1091	6.368	3	1	22	963	3	1	285	0	57	27	lorapark-co2-01	2026-04-27T22:29:32
1092	6.333	3	1	23	962	3	1	386	0	48	26	lorapark-co2-02	2026-04-27T22:58:55
1093	6.339	3	1	22	963	3	1	285	0	58	27	lorapark-co2-01	2026-04-27T22:59:32
1094	6.328	3	1	23	962	3	1	381	0	50	26	lorapark-co2-02	2026-04-27T23:58:56
1095	6.339	3	1	22	963	3	1	286	0	60	27	lorapark-co2-01	2026-04-27T23:59:33
1096	6.293	3	1	23	962	3	1	375	0	51	26	lorapark-co2-02	2026-04-28T00:28:56
1097	6.345	3	1	22	962	3	1	287	0	61	27	lorapark-co2-01	2026-04-28T00:29:33
1098	6.293	3	1	23	962	3	1	372	0	52	26	lorapark-co2-02	2026-04-28T00:58:57
1099	6.339	3	1	22	962	3	1	290	0	62	27	lorapark-co2-01	2026-04-28T00:59:33
1100	6.311	3	1	23	962	3	1	372	0	53	26	lorapark-co2-02	2026-04-28T01:28:57
1101	6.339	3	1	22	962	3	1	290	0	63	27	lorapark-co2-01	2026-04-28T01:29:34
1102	6.311	3	1	23	962	3	1	371	0	54	26	lorapark-co2-02	2026-04-28T01:58:57
1103	6.35	3	1	22	962	3	1	290	0	64	27	lorapark-co2-01	2026-04-28T01:59:34
1104	6.305	3	1	23	962	3	1	371	0	55	26	lorapark-co2-02	2026-04-28T02:28:58
1105	6.368	3	1	22	962	3	1	291	0	65	27	lorapark-co2-01	2026-04-28T02:29:35
1106	6.328	3	1	23	962	3	1	370	0	56	26	lorapark-co2-02	2026-04-28T02:58:58
1107	6.35	3	1	22	962	3	1	293	0	66	27	lorapark-co2-01	2026-04-28T02:59:35
1108	6.299	3	1	22	962	3	1	370	0	57	26	lorapark-co2-02	2026-04-28T03:28:58
1109	6.368	3	1	21	962	3	1	295	0	67	28	lorapark-co2-01	2026-04-28T03:29:35
1110	6.333	3	1	22	962	3	1	371	0	58	26	lorapark-co2-02	2026-04-28T03:58:59
1111	6.373	3	1	21	962	3	1	297	0	68	28	lorapark-co2-01	2026-04-28T03:59:36
1112	6.293	3	1	22	962	3	1	372	0	59	26	lorapark-co2-02	2026-04-28T04:28:59
1113	6.35	3	1	22	962	3	1	298	0	69	27	lorapark-co2-01	2026-04-28T04:29:36
1114	6.293	3	1	23	962	3	1	372	0	60	26	lorapark-co2-02	2026-04-28T04:58:59
1115	6.368	3	1	22	962	3	1	292	0	70	27	lorapark-co2-01	2026-04-28T04:59:36
1116	6.293	3	1	23	962	3	1	369	0	61	26	lorapark-co2-02	2026-04-28T05:29:00
1117	6.339	3	1	22	962	3	1	287	0	71	27	lorapark-co2-01	2026-04-28T05:29:37
1118	6.305	3	1	23	962	3	1	370	0	62	26	lorapark-co2-02	2026-04-28T05:59:00
1119	6.35	3	1	22	962	3	1	285	0	72	26	lorapark-co2-01	2026-04-28T05:59:37
1120	6.328	3	1	22	962	3	1	364	0	63	25	lorapark-co2-02	2026-04-28T06:29:01
1121	6.339	3	1	22	962	3	1	279	0	73	25	lorapark-co2-01	2026-04-28T06:29:38
1122	6.293	3	1	22	962	3	1	378	0	64	26	lorapark-co2-02	2026-04-28T06:59:01
1123	6.362	3	1	22	963	3	1	274	0	74	24	lorapark-co2-01	2026-04-28T06:59:38
1124	6.311	3	1	22	962	3	1	410	0	65	26	lorapark-co2-02	2026-04-28T07:29:01
1125	6.339	3	1	23	962	3	1	439	0	75	25	lorapark-co2-01	2026-04-28T07:29:38
1126	6.328	3	1	22	962	3	1	452	0	66	26	lorapark-co2-02	2026-04-28T07:59:02
1127	6.373	3	1	23	962	3	1	500	0	76	26	lorapark-co2-01	2026-04-28T07:59:39
1128	6.293	3	1	22	962	3	1	499	0	67	26	lorapark-co2-02	2026-04-28T08:29:02
1129	6.339	3	1	23	962	3	1	380	0	77	25	lorapark-co2-01	2026-04-28T08:29:39
1130	6.299	3	1	22	962	3	1	523	0	68	27	lorapark-co2-02	2026-04-28T08:59:02
1131	6.339	3	1	23	962	3	1	325	0	78	26	lorapark-co2-01	2026-04-28T08:59:39
1132	6.293	3	1	22	962	3	1	495	0	69	26	lorapark-co2-02	2026-04-28T09:29:03
1133	6.339	3	1	23	962	3	1	310	0	79	25	lorapark-co2-01	2026-04-28T09:29:40
1134	6.305	3	1	22	962	3	1	492	0	70	27	lorapark-co2-02	2026-04-28T09:59:03
1135	6.328	3	1	23	962	3	1	300	0	80	26	lorapark-co2-01	2026-04-28T09:59:40
1136	6.316	3	1	23	962	3	1	629	0	71	27	lorapark-co2-02	2026-04-28T10:29:03
1137	6.293	3	1	23	962	3	1	608	0	72	27	lorapark-co2-02	2026-04-28T10:59:04
1138	6.333	3	1	23	962	3	1	309	0	82	26	lorapark-co2-01	2026-04-28T10:59:41
1139	6.282	3	1	23	962	3	1	561	0	73	27	lorapark-co2-02	2026-04-28T11:29:04
1140	6.339	3	1	23	962	3	1	312	0	83	26	lorapark-co2-01	2026-04-28T11:29:41
1141	6.282	3	1	23	962	3	1	521	0	74	26	lorapark-co2-02	2026-04-28T11:59:05
1142	6.345	3	1	23	962	3	1	311	0	84	26	lorapark-co2-01	2026-04-28T11:59:42
1143	6.345	3	1	23	962	3	1	312	0	85	26	lorapark-co2-01	2026-04-28T12:29:42
1144	6.305	3	1	23	961	3	1	469	0	76	26	lorapark-co2-02	2026-04-28T12:59:05
1145	6.339	3	1	23	961	3	1	299	0	86	26	lorapark-co2-01	2026-04-28T12:59:42
1146	6.293	3	1	23	961	3	1	480	0	77	26	lorapark-co2-02	2026-04-28T13:29:06
1147	6.368	3	1	23	961	3	1	281	0	87	25	lorapark-co2-01	2026-04-28T13:29:43
1148	6.322	3	1	23	961	3	1	490	0	78	26	lorapark-co2-02	2026-04-28T13:59:06
1149	6.328	3	1	23	961	3	1	268	0	88	25	lorapark-co2-01	2026-04-28T13:59:43
1150	6.328	3	1	23	961	3	1	491	0	79	26	lorapark-co2-02	2026-04-28T14:29:06
1151	6.35	3	1	23	961	3	1	263	0	89	25	lorapark-co2-01	2026-04-28T14:29:44
1152	6.282	3	1	23	961	3	1	497	0	80	26	lorapark-co2-02	2026-04-28T14:59:07
1153	6.368	3	1	23	961	3	1	262	0	90	24	lorapark-co2-01	2026-04-28T14:59:44
1154	6.288	3	1	24	961	3	1	481	0	81	26	lorapark-co2-02	2026-04-28T15:29:07
1155	6.373	3	1	23	961	3	1	260	0	91	24	lorapark-co2-01	2026-04-28T15:29:44
1156	6.288	3	1	24	961	3	1	471	0	82	26	lorapark-co2-02	2026-04-28T15:59:07
1157	6.339	3	1	23	961	3	1	259	0	92	24	lorapark-co2-01	2026-04-28T15:59:45
1158	6.316	3	1	24	961	3	1	456	0	83	26	lorapark-co2-02	2026-04-28T16:29:08
1159	6.356	3	1	23	961	3	1	256	0	93	24	lorapark-co2-01	2026-04-28T16:29:45
1160	6.299	3	1	24	961	3	1	446	0	84	26	lorapark-co2-02	2026-04-28T16:59:08
1161	6.328	3	1	22	961	3	1	253	0	94	24	lorapark-co2-01	2026-04-28T16:59:45
1162	6.276	3	1	23	961	3	1	439	0	85	26	lorapark-co2-02	2026-04-28T17:29:09
1163	6.328	3	1	22	961	3	1	253	0	95	24	lorapark-co2-01	2026-04-28T17:29:46
1164	6.288	3	1	23	961	3	1	432	0	86	26	lorapark-co2-02	2026-04-28T17:59:09
1165	6.339	3	1	22	962	3	1	254	0	96	25	lorapark-co2-01	2026-04-28T17:59:46
1166	6.288	3	1	23	962	3	1	430	0	87	26	lorapark-co2-02	2026-04-28T18:29:09
1167	6.373	3	1	22	962	3	1	253	0	97	25	lorapark-co2-01	2026-04-28T18:29:47
1168	6.328	3	1	23	962	3	1	429	0	88	26	lorapark-co2-02	2026-04-28T18:59:10
1169	6.339	3	1	22	962	3	1	253	0	98	24	lorapark-co2-01	2026-04-28T18:59:47
1170	6.288	3	1	23	962	3	1	421	0	89	27	lorapark-co2-02	2026-04-28T19:29:10
1171	6.333	3	1	22	962	3	1	255	0	99	25	lorapark-co2-01	2026-04-28T19:29:47
1172	6.305	3	1	23	962	3	1	415	0	90	27	lorapark-co2-02	2026-04-28T19:59:10
1173	6.368	3	1	22	963	3	1	256	0	100	25	lorapark-co2-01	2026-04-28T19:59:48
1174	6.288	3	1	23	962	3	1	409	0	91	27	lorapark-co2-02	2026-04-28T20:29:11
1175	6.328	3	1	22	963	3	1	257	0	101	25	lorapark-co2-01	2026-04-28T20:29:48
1176	6.282	3	1	23	963	3	1	403	0	92	27	lorapark-co2-02	2026-04-28T20:59:11
1177	6.368	3	1	22	963	3	1	256	0	102	25	lorapark-co2-01	2026-04-28T20:59:48
1178	6.282	3	1	23	963	3	1	401	0	93	27	lorapark-co2-02	2026-04-28T21:29:11
1179	6.339	3	1	22	963	3	1	258	0	103	25	lorapark-co2-01	2026-04-28T21:29:49
1180	6.293	3	1	23	963	3	1	392	0	96	27	lorapark-co2-02	2026-04-28T22:59:13
1181	6.333	3	1	22	963	3	1	258	0	106	25	lorapark-co2-01	2026-04-28T22:59:50
1182	6.293	3	1	23	963	3	1	385	0	97	27	lorapark-co2-02	2026-04-28T23:29:13
1183	6.35	3	1	22	963	3	1	258	0	107	25	lorapark-co2-01	2026-04-28T23:29:50
1184	6.299	3	1	23	963	3	1	377	0	98	27	lorapark-co2-02	2026-04-28T23:59:13
1185	6.333	3	1	22	963	3	1	258	0	108	24	lorapark-co2-01	2026-04-28T23:59:51
1186	6.322	3	1	23	963	3	1	376	0	99	27	lorapark-co2-02	2026-04-29T00:29:14
1187	6.328	3	1	21	963	3	1	258	0	109	24	lorapark-co2-01	2026-04-29T00:29:51
1188	6.316	3	1	23	963	3	1	373	0	100	27	lorapark-co2-02	2026-04-29T00:59:14
1189	6.339	3	1	21	963	3	1	259	0	110	24	lorapark-co2-01	2026-04-29T00:59:51
1190	6.282	3	1	23	963	3	1	369	0	101	27	lorapark-co2-02	2026-04-29T01:29:14
1191	6.356	3	1	21	963	3	1	260	0	111	24	lorapark-co2-01	2026-04-29T01:29:52
1192	6.322	3	1	23	963	3	1	366	0	102	27	lorapark-co2-02	2026-04-29T01:59:15
1193	6.373	3	1	21	963	3	1	260	0	112	25	lorapark-co2-01	2026-04-29T01:59:52
1194	6.311	3	1	23	963	3	1	364	0	103	27	lorapark-co2-02	2026-04-29T02:29:15
1195	6.333	3	1	21	963	3	1	260	0	113	25	lorapark-co2-01	2026-04-29T02:29:53
1196	6.282	3	1	22	963	3	1	360	0	104	27	lorapark-co2-02	2026-04-29T02:59:16
1197	6.339	3	1	21	964	3	1	260	0	114	25	lorapark-co2-01	2026-04-29T02:59:53
1198	6.282	3	1	22	964	3	1	355	0	105	27	lorapark-co2-02	2026-04-29T03:29:16
1199	6.328	3	1	21	964	3	1	260	0	115	25	lorapark-co2-01	2026-04-29T03:29:53
1200	6.322	3	1	22	964	3	1	354	0	106	26	lorapark-co2-02	2026-04-29T03:59:16
1201	6.345	3	1	21	964	3	1	259	0	116	25	lorapark-co2-01	2026-04-29T03:59:54
1202	6.282	3	1	22	964	3	1	352	0	107	26	lorapark-co2-02	2026-04-29T04:29:17
1203	6.339	3	1	22	964	3	1	259	0	117	24	lorapark-co2-01	2026-04-29T04:29:54
1204	6.288	3	1	22	964	3	1	361	0	108	27	lorapark-co2-02	2026-04-29T04:59:17
1205	6.339	3	1	22	964	3	1	259	0	118	24	lorapark-co2-01	2026-04-29T04:59:54
1206	6.282	3	1	22	965	3	1	381	0	109	27	lorapark-co2-02	2026-04-29T05:29:17
1207	6.345	3	1	22	965	3	1	260	0	119	24	lorapark-co2-01	2026-04-29T05:29:55
1208	6.293	3	1	23	965	3	1	382	0	110	28	lorapark-co2-02	2026-04-29T05:59:18
1209	6.333	3	1	22	965	3	1	260	0	120	24	lorapark-co2-01	2026-04-29T05:59:55
1210	6.322	3	1	23	965	3	1	387	0	111	28	lorapark-co2-02	2026-04-29T06:29:18
1211	6.328	3	1	22	965	3	1	379	0	121	25	lorapark-co2-01	2026-04-29T06:29:56
1212	6.282	3	1	23	965	3	1	425	0	112	27	lorapark-co2-02	2026-04-29T06:59:18
1213	6.333	3	1	22	965	3	1	328	0	122	25	lorapark-co2-01	2026-04-29T06:59:56
1214	6.293	3	1	23	965	3	1	490	0	113	27	lorapark-co2-02	2026-04-29T07:29:19
1215	6.333	3	1	23	965	3	1	295	0	123	25	lorapark-co2-01	2026-04-29T07:29:56
1216	6.322	3	1	23	965	3	1	522	0	114	27	lorapark-co2-02	2026-04-29T07:59:19
1217	6.328	3	1	23	965	3	1	283	0	124	24	lorapark-co2-01	2026-04-29T07:59:57
1218	6.328	3	1	23	965	3	1	519	0	115	27	lorapark-co2-02	2026-04-29T08:29:20
1219	6.333	3	1	23	965	3	1	278	0	125	24	lorapark-co2-01	2026-04-29T08:29:57
1220	6.328	3	1	23	965	3	1	556	0	116	27	lorapark-co2-02	2026-04-29T08:59:20
1221	6.368	3	1	23	965	3	1	276	0	126	24	lorapark-co2-01	2026-04-29T08:59:57
1222	6.299	3	1	23	965	3	1	579	0	117	27	lorapark-co2-02	2026-04-29T09:29:20
1223	6.345	3	1	23	965	3	1	271	0	127	24	lorapark-co2-01	2026-04-29T09:29:58
1224	6.322	3	1	23	965	3	1	608	0	118	27	lorapark-co2-02	2026-04-29T09:59:21
1225	6.362	3	1	23	965	3	1	272	0	128	25	lorapark-co2-01	2026-04-29T09:59:58
1226	6.328	3	1	23	965	3	1	618	0	119	27	lorapark-co2-02	2026-04-29T10:29:21
1227	6.345	3	1	23	965	3	1	285	0	129	26	lorapark-co2-01	2026-04-29T10:29:59
1228	6.282	3	1	23	965	3	1	607	0	120	27	lorapark-co2-02	2026-04-29T10:59:21
1229	6.356	3	1	23	965	3	1	299	0	130	26	lorapark-co2-01	2026-04-29T10:59:59
1230	6.276	3	1	23	965	3	1	515	0	121	27	lorapark-co2-02	2026-04-29T11:29:22
1231	6.333	3	1	23	965	3	1	301	0	131	26	lorapark-co2-01	2026-04-29T11:29:59
1232	6.322	3	1	23	965	3	1	474	0	122	27	lorapark-co2-02	2026-04-29T11:59:22
1233	6.368	3	1	23	965	3	1	295	0	132	26	lorapark-co2-01	2026-04-29T12:00:00
1234	6.288	3	1	23	965	3	1	439	0	123	26	lorapark-co2-02	2026-04-29T12:29:22
1235	6.333	3	1	23	965	3	1	280	0	133	26	lorapark-co2-01	2026-04-29T12:30:00
1236	6.282	3	1	23	965	3	1	429	0	124	26	lorapark-co2-02	2026-04-29T12:59:23
1237	6.333	3	1	23	965	3	1	276	0	134	26	lorapark-co2-01	2026-04-29T13:00:00
1238	6.282	3	1	23	965	3	1	410	0	125	25	lorapark-co2-02	2026-04-29T13:29:23
1239	6.333	3	1	23	965	3	1	266	0	135	25	lorapark-co2-01	2026-04-29T13:30:01
1240	6.276	3	1	23	965	3	1	406	0	126	26	lorapark-co2-02	2026-04-29T13:59:24
1241	6.345	3	1	23	965	3	1	266	0	136	25	lorapark-co2-01	2026-04-29T14:00:01
1242	6.293	3	1	23	965	3	1	406	0	127	26	lorapark-co2-02	2026-04-29T14:29:24
1243	6.362	3	1	23	965	3	1	268	0	137	25	lorapark-co2-01	2026-04-29T14:30:02
1244	6.328	3	1	23	965	3	1	404	0	128	25	lorapark-co2-02	2026-04-29T14:59:24
1245	6.322	3	1	23	965	3	1	268	0	138	25	lorapark-co2-01	2026-04-29T15:00:02
1246	6.288	3	1	24	965	3	1	400	0	129	25	lorapark-co2-02	2026-04-29T15:29:25
1247	6.368	3	1	23	965	3	1	268	0	139	25	lorapark-co2-01	2026-04-29T15:30:02
1248	6.282	3	1	25	965	3	1	384	0	130	25	lorapark-co2-02	2026-04-29T15:59:25
1249	6.368	3	1	23	965	3	1	266	0	140	25	lorapark-co2-01	2026-04-29T16:00:03
1250	6.276	3	1	25	965	3	1	380	0	131	25	lorapark-co2-02	2026-04-29T16:29:25
1251	6.316	3	1	23	965	3	1	261	0	141	25	lorapark-co2-01	2026-04-29T16:30:03
1252	6.293	3	1	25	965	3	1	379	0	132	25	lorapark-co2-02	2026-04-29T16:59:26
1253	6.362	3	1	23	966	3	1	260	0	142	25	lorapark-co2-01	2026-04-29T17:00:03
1254	6.276	3	1	24	966	3	1	374	0	133	25	lorapark-co2-02	2026-04-29T17:29:26
1255	6.328	3	1	23	966	3	1	257	0	143	24	lorapark-co2-01	2026-04-29T17:30:04
1256	6.322	3	1	24	966	3	1	372	0	134	25	lorapark-co2-02	2026-04-29T17:59:26
1257	6.345	3	1	22	966	3	1	257	0	144	24	lorapark-co2-01	2026-04-29T18:00:04
1258	6.322	3	1	24	966	3	1	367	0	135	25	lorapark-co2-02	2026-04-29T18:29:27
1259	6.328	3	1	22	966	3	1	257	0	145	24	lorapark-co2-01	2026-04-29T18:30:05
1260	6.288	3	1	24	967	3	1	365	0	136	25	lorapark-co2-02	2026-04-29T18:59:27
1261	6.368	3	1	22	967	3	1	257	0	146	23	lorapark-co2-01	2026-04-29T19:00:05
1262	6.322	3	1	24	967	3	1	362	0	137	25	lorapark-co2-02	2026-04-29T19:29:28
1263	6.333	3	1	22	967	3	1	257	0	147	23	lorapark-co2-01	2026-04-29T19:30:05
1264	6.311	3	1	24	967	3	1	359	0	138	25	lorapark-co2-02	2026-04-29T19:59:28
1265	6.333	3	1	22	967	3	1	258	0	148	23	lorapark-co2-01	2026-04-29T20:00:06
1266	6.311	3	1	24	968	3	1	358	0	139	25	lorapark-co2-02	2026-04-29T20:29:28
1267	6.328	3	1	22	968	3	1	259	0	149	23	lorapark-co2-01	2026-04-29T20:30:06
1268	6.293	3	1	23	968	3	1	358	0	140	25	lorapark-co2-02	2026-04-29T20:59:29
1269	6.322	3	1	22	968	3	1	258	0	150	23	lorapark-co2-01	2026-04-29T21:00:06
1270	6.288	3	1	23	968	3	1	354	0	141	25	lorapark-co2-02	2026-04-29T21:29:29
1271	6.322	3	1	22	968	3	1	259	0	151	23	lorapark-co2-01	2026-04-29T21:30:07
1272	6.276	3	1	23	968	3	1	353	0	142	25	lorapark-co2-02	2026-04-29T21:59:29
1273	6.328	3	1	22	969	3	1	259	0	152	23	lorapark-co2-01	2026-04-29T22:00:07
1274	6.322	3	1	23	969	3	1	350	0	143	25	lorapark-co2-02	2026-04-29T22:29:30
1275	6.35	3	1	22	969	3	1	261	0	153	23	lorapark-co2-01	2026-04-29T22:30:08
1276	6.322	3	1	23	969	3	1	349	0	144	25	lorapark-co2-02	2026-04-29T22:59:30
1277	6.328	3	1	22	969	3	1	261	0	154	23	lorapark-co2-01	2026-04-29T23:00:08
1278	6.276	3	1	23	969	3	1	349	0	145	25	lorapark-co2-02	2026-04-29T23:29:30
1279	6.368	3	1	22	969	3	1	261	0	155	22	lorapark-co2-01	2026-04-29T23:30:08
1280	6.282	3	1	23	969	3	1	349	0	146	25	lorapark-co2-02	2026-04-29T23:59:31
1281	6.328	3	1	22	969	3	1	260	0	156	22	lorapark-co2-01	2026-04-30T00:00:09
1282	6.276	3	1	23	969	3	1	347	0	147	25	lorapark-co2-02	2026-04-30T00:29:31
1283	6.339	3	1	22	969	3	1	259	0	157	22	lorapark-co2-01	2026-04-30T00:30:09
1284	6.316	3	1	23	969	3	1	344	0	148	25	lorapark-co2-02	2026-04-30T00:59:32
1285	6.368	3	1	22	969	3	1	260	0	158	22	lorapark-co2-01	2026-04-30T01:00:09
1286	6.282	3	1	23	969	3	1	342	0	149	25	lorapark-co2-02	2026-04-30T01:29:32
1287	6.368	3	1	22	970	3	1	260	0	159	22	lorapark-co2-01	2026-04-30T01:30:10
1288	6.288	3	1	22	970	3	1	341	0	150	25	lorapark-co2-02	2026-04-30T01:59:32
1289	6.328	3	1	21	970	3	1	260	0	160	22	lorapark-co2-01	2026-04-30T02:00:10
1290	6.282	3	1	22	970	3	1	340	0	151	25	lorapark-co2-02	2026-04-30T02:29:33
1291	6.362	3	1	21	970	3	1	260	0	161	22	lorapark-co2-01	2026-04-30T02:30:11
1292	6.288	3	1	22	970	3	1	339	0	152	24	lorapark-co2-02	2026-04-30T02:59:33
1293	6.339	3	1	21	970	3	1	260	0	162	22	lorapark-co2-01	2026-04-30T03:00:11
1294	6.305	3	1	22	970	3	1	400	0	153	24	lorapark-co2-02	2026-04-30T03:29:33
1295	6.328	3	1	21	970	3	1	261	0	163	22	lorapark-co2-01	2026-04-30T03:30:11
1296	6.282	3	1	22	970	3	1	400	0	154	24	lorapark-co2-02	2026-04-30T03:59:34
1297	6.356	3	1	21	970	3	1	330	0	164	22	lorapark-co2-01	2026-04-30T04:00:12
1298	6.311	3	1	22	970	3	1	399	0	155	24	lorapark-co2-02	2026-04-30T04:29:34
1299	6.339	3	1	22	970	3	1	330	0	165	21	lorapark-co2-01	2026-04-30T04:30:12
1300	6.288	3	1	22	970	3	1	399	0	156	24	lorapark-co2-02	2026-04-30T04:59:35
1301	6.362	3	1	22	970	3	1	330	0	166	21	lorapark-co2-01	2026-04-30T05:00:12
1302	6.288	3	1	22	970	3	1	398	0	157	24	lorapark-co2-02	2026-04-30T05:29:35
1303	6.339	3	1	22	970	3	1	331	0	167	21	lorapark-co2-01	2026-04-30T05:30:13
1304	6.293	3	1	22	970	3	1	399	0	158	24	lorapark-co2-02	2026-04-30T05:59:35
1305	6.35	3	1	23	970	3	1	330	0	168	20	lorapark-co2-01	2026-04-30T06:00:13
1306	6.282	3	1	22	970	3	1	399	0	159	24	lorapark-co2-02	2026-04-30T06:29:36
1307	6.322	3	1	23	970	3	1	331	0	169	20	lorapark-co2-01	2026-04-30T06:30:14
1308	6.316	3	1	22	970	3	1	410	0	160	24	lorapark-co2-02	2026-04-30T06:59:36
1309	6.35	3	1	23	970	3	1	334	0	170	20	lorapark-co2-01	2026-04-30T07:00:14
1310	6.276	3	1	22	970	3	1	429	0	161	24	lorapark-co2-02	2026-04-30T07:29:36
1311	6.322	3	1	23	970	3	1	340	0	171	19	lorapark-co2-01	2026-04-30T07:30:14
1312	6.293	3	1	22	971	3	1	444	0	162	23	lorapark-co2-02	2026-04-30T07:59:37
1313	6.328	3	1	23	971	3	1	344	0	172	20	lorapark-co2-01	2026-04-30T08:00:15
1314	6.282	3	1	22	971	3	1	480	0	163	23	lorapark-co2-02	2026-04-30T08:29:37
1315	6.345	3	1	23	971	3	1	347	0	173	20	lorapark-co2-01	2026-04-30T08:30:15
1316	6.293	3	1	22	971	3	1	487	0	164	23	lorapark-co2-02	2026-04-30T08:59:37
1317	6.35	3	1	23	971	3	1	349	0	174	20	lorapark-co2-01	2026-04-30T09:00:15
1318	6.299	3	1	22	971	3	1	488	0	165	23	lorapark-co2-02	2026-04-30T09:29:38
1319	6.333	3	1	23	971	3	1	353	0	175	21	lorapark-co2-01	2026-04-30T09:30:16
1320	6.282	3	1	22	971	3	1	477	0	166	23	lorapark-co2-02	2026-04-30T09:59:38
1321	6.328	3	1	23	971	3	1	358	0	176	21	lorapark-co2-01	2026-04-30T10:00:16
1322	6.288	3	1	22	970	3	1	492	0	168	22	lorapark-co2-02	2026-04-30T10:59:39
1323	6.362	3	1	23	970	3	1	385	0	178	22	lorapark-co2-01	2026-04-30T11:00:17
1324	6.282	3	1	22	970	3	1	504	0	169	22	lorapark-co2-02	2026-04-30T11:29:39
1325	6.333	3	1	23	970	3	1	401	0	179	22	lorapark-co2-01	2026-04-30T11:30:17
1326	6.276	3	1	22	969	3	1	514	0	170	22	lorapark-co2-02	2026-04-30T11:59:40
1327	6.333	3	1	23	970	3	1	435	0	180	23	lorapark-co2-01	2026-04-30T12:00:18
1328	6.316	3	1	22	969	3	1	544	0	171	22	lorapark-co2-02	2026-04-30T12:29:40
1329	6.333	3	1	23	970	3	1	434	0	181	23	lorapark-co2-01	2026-04-30T12:30:18
1330	6.276	3	1	22	969	3	1	511	0	172	21	lorapark-co2-02	2026-04-30T12:59:40
1331	6.328	3	1	23	970	3	1	431	0	182	24	lorapark-co2-01	2026-04-30T13:00:18
1332	6.276	3	1	22	969	3	1	469	0	173	20	lorapark-co2-02	2026-04-30T13:29:41
1333	6.316	3	1	23	969	3	1	430	0	183	24	lorapark-co2-01	2026-04-30T13:30:19
1334	6.282	3	1	22	969	3	1	461	0	175	21	lorapark-co2-02	2026-04-30T14:29:41
1335	6.339	3	1	23	969	3	1	411	0	185	25	lorapark-co2-01	2026-04-30T14:30:19
1336	6.282	3	1	23	969	3	1	458	0	176	21	lorapark-co2-02	2026-04-30T14:59:42
1337	6.316	3	1	23	969	3	1	404	0	186	25	lorapark-co2-01	2026-04-30T15:00:20
1338	6.288	3	1	24	969	3	1	460	0	177	21	lorapark-co2-02	2026-04-30T15:29:42
1339	6.368	3	1	23	969	3	1	397	0	187	25	lorapark-co2-01	2026-04-30T15:30:20
1340	6.282	3	1	24	969	3	1	466	0	178	21	lorapark-co2-02	2026-04-30T15:59:42
1341	6.328	3	1	23	969	3	1	395	0	188	25	lorapark-co2-01	2026-04-30T16:00:21
1342	6.311	3	1	24	969	3	1	452	0	179	21	lorapark-co2-02	2026-04-30T16:29:43
1343	6.356	3	1	23	969	3	1	388	0	189	25	lorapark-co2-01	2026-04-30T16:30:21
1344	6.276	3	1	24	969	3	1	448	0	180	21	lorapark-co2-02	2026-04-30T16:59:43
1345	6.328	3	1	23	969	3	1	384	0	190	25	lorapark-co2-01	2026-04-30T17:00:21
1346	6.271	3	1	24	969	3	1	444	0	181	21	lorapark-co2-02	2026-04-30T17:29:44
1347	6.328	3	1	22	969	3	1	380	0	191	26	lorapark-co2-01	2026-04-30T17:30:22
1348	6.282	3	1	24	969	3	1	441	0	182	21	lorapark-co2-02	2026-04-30T17:59:44
1349	6.339	3	1	22	969	3	1	376	0	192	26	lorapark-co2-01	2026-04-30T18:00:22
1350	6.293	3	1	24	969	3	1	440	0	183	22	lorapark-co2-02	2026-04-30T18:29:44
1351	6.316	3	1	22	969	3	1	374	0	193	26	lorapark-co2-01	2026-04-30T18:30:23
1352	6.276	3	1	24	970	3	1	442	0	184	22	lorapark-co2-02	2026-04-30T18:59:45
1353	6.328	3	1	22	970	3	1	371	0	194	26	lorapark-co2-01	2026-04-30T19:00:23
1354	6.288	3	1	23	970	3	1	441	0	185	22	lorapark-co2-02	2026-04-30T19:29:45
1355	6.328	3	1	22	970	3	1	369	0	195	26	lorapark-co2-01	2026-04-30T19:30:23
1356	6.276	3	1	23	970	3	1	438	0	186	22	lorapark-co2-02	2026-04-30T19:59:45
1357	6.333	3	1	22	970	3	1	365	0	196	26	lorapark-co2-01	2026-04-30T20:00:24
1358	6.316	3	1	23	970	3	1	441	0	187	22	lorapark-co2-02	2026-04-30T20:29:46
1359	6.339	3	1	22	970	3	1	365	0	197	27	lorapark-co2-01	2026-04-30T20:30:24
1360	6.276	3	1	23	970	3	1	437	0	188	22	lorapark-co2-02	2026-04-30T20:59:46
1361	6.362	3	1	22	971	3	1	362	0	198	27	lorapark-co2-01	2026-04-30T21:00:24
1362	6.282	3	1	23	970	3	1	434	0	189	22	lorapark-co2-02	2026-04-30T21:29:47
1363	6.322	3	1	22	971	3	1	359	0	199	27	lorapark-co2-01	2026-04-30T21:30:25
1364	6.316	3	1	23	971	3	1	429	0	190	23	lorapark-co2-02	2026-04-30T21:59:47
1365	6.362	3	1	22	971	3	1	358	0	200	27	lorapark-co2-01	2026-04-30T22:00:25
1366	6.316	3	1	23	970	3	1	427	0	191	23	lorapark-co2-02	2026-04-30T22:29:47
1367	6.356	3	1	22	971	3	1	357	0	201	27	lorapark-co2-01	2026-04-30T22:30:25
1368	6.311	3	1	23	970	3	1	426	0	192	23	lorapark-co2-02	2026-04-30T22:59:48
1369	6.333	3	1	22	970	3	1	356	0	202	27	lorapark-co2-01	2026-04-30T23:00:26
1370	6.322	3	1	22	970	3	1	425	0	193	23	lorapark-co2-02	2026-04-30T23:29:48
1371	6.368	3	1	22	971	3	1	354	0	203	27	lorapark-co2-01	2026-04-30T23:30:26
1372	6.282	3	1	22	970	3	1	424	0	194	23	lorapark-co2-02	2026-04-30T23:59:48
1373	6.322	3	1	22	971	3	1	353	0	204	27	lorapark-co2-01	2026-05-01T00:00:27
1374	6.288	3	1	22	970	3	1	422	0	195	23	lorapark-co2-02	2026-05-01T00:29:49
1375	6.333	3	1	22	971	3	1	353	0	205	27	lorapark-co2-01	2026-05-01T00:30:27
1376	6.322	3	1	22	970	3	1	420	0	196	23	lorapark-co2-02	2026-05-01T00:59:49
1377	6.368	3	1	22	971	3	1	351	0	206	27	lorapark-co2-01	2026-05-01T01:00:27
1378	6.299	3	1	22	970	3	1	417	0	197	23	lorapark-co2-02	2026-05-01T01:29:49
1379	6.339	3	1	22	970	3	1	347	0	207	27	lorapark-co2-01	2026-05-01T01:30:28
1380	6.282	3	1	22	970	3	1	416	0	198	23	lorapark-co2-02	2026-05-01T01:59:50
1381	6.333	3	1	21	970	3	1	346	0	208	27	lorapark-co2-01	2026-05-01T02:00:28
1382	6.299	3	1	22	970	3	1	414	0	199	23	lorapark-co2-02	2026-05-01T02:29:50
1383	6.322	3	1	21	970	3	1	345	0	209	27	lorapark-co2-01	2026-05-01T02:30:28
1384	6.288	3	1	22	970	3	1	413	0	200	23	lorapark-co2-02	2026-05-01T02:59:51
1385	6.333	3	1	21	970	3	1	343	0	210	27	lorapark-co2-01	2026-05-01T03:00:29
1386	6.276	3	1	22	970	3	1	410	0	202	23	lorapark-co2-02	2026-05-01T03:59:51
1387	6.328	3	1	21	970	3	1	342	0	212	27	lorapark-co2-01	2026-05-01T04:00:30
1388	6.282	3	1	22	970	3	1	408	0	203	23	lorapark-co2-02	2026-05-01T04:29:52
1389	6.333	3	1	22	970	3	1	342	0	213	26	lorapark-co2-01	2026-05-01T04:30:30
1390	6.305	3	1	22	970	3	1	408	0	204	23	lorapark-co2-02	2026-05-01T04:59:52
1391	6.339	3	1	22	971	3	1	341	0	214	26	lorapark-co2-01	2026-05-01T05:00:30
1392	6.282	3	1	22	971	3	1	408	0	205	23	lorapark-co2-02	2026-05-01T05:29:52
1393	6.356	3	1	22	971	3	1	341	0	215	26	lorapark-co2-01	2026-05-01T05:30:31
1394	6.282	3	1	22	971	3	1	408	0	206	23	lorapark-co2-02	2026-05-01T05:59:53
1395	6.333	3	1	23	971	3	1	340	0	216	26	lorapark-co2-01	2026-05-01T06:00:31
1396	6.276	3	1	22	971	3	1	407	0	207	23	lorapark-co2-02	2026-05-01T06:29:53
1397	6.322	3	1	23	971	3	1	340	0	217	25	lorapark-co2-01	2026-05-01T06:30:31
1398	6.311	3	1	22	971	3	1	406	0	208	23	lorapark-co2-02	2026-05-01T06:59:53
1399	6.333	3	1	24	971	3	1	339	0	218	25	lorapark-co2-01	2026-05-01T07:00:32
1400	6.282	3	1	22	971	3	1	405	0	209	23	lorapark-co2-02	2026-05-01T07:29:54
1401	6.362	3	1	24	971	3	1	338	0	219	25	lorapark-co2-01	2026-05-01T07:30:32
1402	6.276	3	1	22	971	3	1	405	0	210	23	lorapark-co2-02	2026-05-01T07:59:54
1403	6.356	3	1	24	971	3	1	338	0	220	25	lorapark-co2-01	2026-05-01T08:00:33
1404	6.282	3	1	22	971	3	1	404	0	211	23	lorapark-co2-02	2026-05-01T08:29:55
1405	6.328	3	1	23	971	3	1	336	0	221	25	lorapark-co2-01	2026-05-01T08:30:33
1406	6.282	3	1	22	971	3	1	403	0	212	23	lorapark-co2-02	2026-05-01T08:59:55
1407	6.328	3	1	23	971	3	1	336	0	222	25	lorapark-co2-01	2026-05-01T09:00:33
1408	6.276	3	1	22	971	3	1	403	0	213	23	lorapark-co2-02	2026-05-01T09:29:55
1409	6.322	3	1	23	971	3	1	336	0	223	25	lorapark-co2-01	2026-05-01T09:30:34
1410	6.271	3	1	22	971	3	1	403	0	214	23	lorapark-co2-02	2026-05-01T09:59:56
1411	6.339	3	1	23	971	3	1	334	0	224	25	lorapark-co2-01	2026-05-01T10:00:34
1412	6.288	3	1	22	971	3	1	402	0	215	23	lorapark-co2-02	2026-05-01T10:29:56
1413	6.322	3	1	23	971	3	1	334	0	225	25	lorapark-co2-01	2026-05-01T10:30:34
1414	6.271	3	1	22	970	3	1	400	0	216	23	lorapark-co2-02	2026-05-01T10:59:56
1415	6.339	3	1	23	971	3	1	334	0	226	26	lorapark-co2-01	2026-05-01T11:00:35
1416	6.276	3	1	22	970	3	1	400	0	217	23	lorapark-co2-02	2026-05-01T11:29:57
1417	6.322	3	1	23	970	3	1	333	0	227	26	lorapark-co2-01	2026-05-01T11:30:35
1418	6.288	3	1	22	970	3	1	399	0	218	23	lorapark-co2-02	2026-05-01T11:59:57
1419	6.322	3	1	23	970	3	1	333	0	228	26	lorapark-co2-01	2026-05-01T12:00:36
1420	6.293	3	1	22	969	3	1	399	0	220	24	lorapark-co2-02	2026-05-01T12:59:58
1421	6.328	3	1	23	969	3	1	331	0	230	27	lorapark-co2-01	2026-05-01T13:00:36
1422	6.288	3	1	22	969	3	1	400	0	221	24	lorapark-co2-02	2026-05-01T13:29:58
1423	6.333	3	1	23	969	3	1	330	0	231	27	lorapark-co2-01	2026-05-01T13:30:37
1424	6.282	3	1	23	969	3	1	398	0	222	24	lorapark-co2-02	2026-05-01T13:59:59
1425	6.322	3	1	23	969	3	1	329	0	232	27	lorapark-co2-01	2026-05-01T14:00:37
1426	6.316	3	1	23	969	3	1	398	0	223	24	lorapark-co2-02	2026-05-01T14:29:59
1427	6.322	3	1	23	969	3	1	329	0	233	28	lorapark-co2-01	2026-05-01T14:30:37
1428	6.282	3	1	23	968	3	1	397	0	224	24	lorapark-co2-02	2026-05-01T14:59:59
1429	6.333	3	1	23	969	3	1	330	0	234	28	lorapark-co2-01	2026-05-01T15:00:38
1430	6.265	3	1	24	968	3	1	398	0	226	23	lorapark-co2-02	2026-05-01T16:00:00
1431	6.328	3	1	23	968	3	1	330	0	236	28	lorapark-co2-01	2026-05-01T16:00:39
1432	6.271	3	1	24	968	3	1	399	0	227	23	lorapark-co2-02	2026-05-01T16:30:00
1433	6.356	3	1	23	968	3	1	328	0	237	28	lorapark-co2-01	2026-05-01T16:30:39
1434	6.276	3	1	24	968	3	1	399	0	229	23	lorapark-co2-02	2026-05-01T17:30:01
1435	6.339	3	1	23	968	3	1	329	0	239	29	lorapark-co2-01	2026-05-01T17:30:40
1436	6.271	3	1	24	968	3	1	397	0	230	23	lorapark-co2-02	2026-05-01T18:00:01
1437	6.322	3	1	23	968	3	1	329	0	240	29	lorapark-co2-01	2026-05-01T18:00:40
1438	6.282	3	1	24	968	3	1	398	0	231	24	lorapark-co2-02	2026-05-01T18:30:02
1439	6.345	3	1	23	968	3	1	330	0	241	29	lorapark-co2-01	2026-05-01T18:30:40
1440	6.299	3	1	24	968	3	1	399	0	232	24	lorapark-co2-02	2026-05-01T19:00:02
1441	6.328	3	1	23	969	3	1	328	0	242	29	lorapark-co2-01	2026-05-01T19:00:41
1442	6.276	3	1	24	969	3	1	402	0	233	24	lorapark-co2-02	2026-05-01T19:30:03
1443	6.322	3	1	23	969	3	1	329	0	243	29	lorapark-co2-01	2026-05-01T19:30:41
1444	6.282	3	1	24	969	3	1	401	0	234	24	lorapark-co2-02	2026-05-01T20:00:03
1445	6.328	3	1	23	969	3	1	330	0	244	29	lorapark-co2-01	2026-05-01T20:00:42
1446	6.282	3	1	23	969	3	1	405	0	235	24	lorapark-co2-02	2026-05-01T20:30:03
1447	6.356	3	1	22	969	3	1	332	0	245	29	lorapark-co2-01	2026-05-01T20:30:42
1448	6.276	3	1	23	969	3	1	406	0	236	24	lorapark-co2-02	2026-05-01T21:00:04
1449	6.328	3	1	22	969	3	1	332	0	246	30	lorapark-co2-01	2026-05-01T21:00:42
1450	6.288	3	1	23	969	3	1	406	0	237	24	lorapark-co2-02	2026-05-01T21:30:04
1451	6.316	3	1	22	969	3	1	333	0	247	30	lorapark-co2-01	2026-05-01T21:30:43
1452	6.316	3	1	23	969	3	1	406	0	238	24	lorapark-co2-02	2026-05-01T22:00:04
1453	6.322	3	1	22	969	3	1	333	0	248	30	lorapark-co2-01	2026-05-01T22:00:43
1454	6.288	3	1	23	969	3	1	406	0	239	25	lorapark-co2-02	2026-05-01T22:30:05
1455	6.362	3	1	22	969	3	1	333	0	249	30	lorapark-co2-01	2026-05-01T22:30:43
1456	6.305	3	1	23	969	3	1	407	0	240	25	lorapark-co2-02	2026-05-01T23:00:05
1457	6.35	3	1	22	969	3	1	334	0	250	30	lorapark-co2-01	2026-05-01T23:00:44
1458	6.288	3	1	23	968	3	1	408	0	242	25	lorapark-co2-02	2026-05-02T00:00:06
1459	6.328	3	1	22	969	3	1	334	0	252	30	lorapark-co2-01	2026-05-02T00:00:45
1460	6.305	3	1	23	968	3	1	408	0	243	25	lorapark-co2-02	2026-05-02T00:30:06
1461	6.328	3	1	22	968	3	1	336	0	253	30	lorapark-co2-01	2026-05-02T00:30:45
1462	6.288	3	1	23	968	3	1	411	0	244	25	lorapark-co2-02	2026-05-02T01:00:07
1463	6.316	3	1	22	968	3	1	337	0	254	30	lorapark-co2-01	2026-05-02T01:00:45
1464	6.276	3	1	23	968	3	1	411	0	245	25	lorapark-co2-02	2026-05-02T01:30:07
1465	6.35	3	1	22	968	3	1	339	0	255	30	lorapark-co2-01	2026-05-02T01:30:46
1466	6.276	3	1	22	968	3	1	412	0	246	25	lorapark-co2-02	2026-05-02T02:00:07
1467	6.339	3	1	22	968	3	1	340	0	0	30	lorapark-co2-01	2026-05-02T02:00:46
1468	6.282	3	1	22	968	3	1	414	0	247	25	lorapark-co2-02	2026-05-02T02:30:08
1469	6.356	3	1	22	968	3	1	342	0	1	30	lorapark-co2-01	2026-05-02T02:30:46
1470	6.288	3	1	22	968	3	1	416	0	248	25	lorapark-co2-02	2026-05-02T03:00:08
1471	6.356	3	1	22	968	3	1	343	0	2	30	lorapark-co2-01	2026-05-02T03:00:47
1472	6.276	3	1	22	967	3	1	418	0	249	25	lorapark-co2-02	2026-05-02T03:30:08
1473	6.322	3	1	22	968	3	1	344	0	3	30	lorapark-co2-01	2026-05-02T03:30:47
1474	6.311	3	1	22	967	3	1	419	0	250	25	lorapark-co2-02	2026-05-02T04:00:09
1475	6.333	3	1	22	968	3	1	348	0	4	30	lorapark-co2-01	2026-05-02T04:00:48
1476	6.271	3	1	22	968	3	1	420	0	251	25	lorapark-co2-02	2026-05-02T04:30:09
1477	6.316	3	1	22	968	3	1	348	0	5	30	lorapark-co2-01	2026-05-02T04:30:48
1478	6.276	3	1	22	968	3	1	422	0	252	25	lorapark-co2-02	2026-05-02T05:00:09
1479	6.339	3	1	22	968	3	1	351	0	6	30	lorapark-co2-01	2026-05-02T05:00:48
1480	6.271	3	1	22	968	3	1	425	0	253	25	lorapark-co2-02	2026-05-02T05:30:10
1481	6.316	3	1	22	968	3	1	352	0	7	30	lorapark-co2-01	2026-05-02T05:30:49
1482	6.271	3	1	22	968	3	1	426	0	254	25	lorapark-co2-02	2026-05-02T06:00:10
1483	6.322	3	1	22	968	3	1	353	0	8	30	lorapark-co2-01	2026-05-02T06:00:49
1484	6.271	3	1	22	968	3	1	427	0	255	25	lorapark-co2-02	2026-05-02T06:30:11
1485	6.333	3	1	23	968	3	1	353	0	9	30	lorapark-co2-01	2026-05-02T06:30:49
1486	6.271	3	1	22	968	3	1	428	0	0	26	lorapark-co2-02	2026-05-02T07:00:11
1487	6.322	3	1	23	968	3	1	354	0	10	29	lorapark-co2-01	2026-05-02T07:00:50
1488	6.311	3	1	22	968	3	1	428	0	1	26	lorapark-co2-02	2026-05-02T07:30:11
1489	6.356	3	1	23	968	3	1	352	0	11	29	lorapark-co2-01	2026-05-02T07:30:50
1490	6.282	3	1	22	967	3	1	427	0	2	26	lorapark-co2-02	2026-05-02T08:00:12
1491	6.35	3	1	23	968	3	1	351	0	12	29	lorapark-co2-01	2026-05-02T08:00:50
1492	6.265	3	1	22	967	3	1	428	0	3	26	lorapark-co2-02	2026-05-02T08:30:12
1493	6.328	3	1	23	967	3	1	351	0	13	29	lorapark-co2-01	2026-05-02T08:30:51
1494	6.276	3	1	22	967	3	1	425	0	4	26	lorapark-co2-02	2026-05-02T09:00:12
1495	6.333	3	1	23	967	3	1	350	0	14	29	lorapark-co2-01	2026-05-02T09:00:51
1496	6.282	3	1	22	967	3	1	426	0	5	26	lorapark-co2-02	2026-05-02T09:30:13
1497	6.316	3	1	23	967	3	1	350	0	15	29	lorapark-co2-01	2026-05-02T09:30:52
1498	6.276	3	1	22	967	3	1	424	0	6	26	lorapark-co2-02	2026-05-02T10:00:13
1499	6.322	3	1	23	967	3	1	351	0	16	29	lorapark-co2-01	2026-05-02T10:00:52
1500	6.305	3	1	22	966	3	1	424	0	7	26	lorapark-co2-02	2026-05-02T10:30:14
1501	6.35	3	1	23	966	3	1	352	0	17	29	lorapark-co2-01	2026-05-02T10:30:52
1502	6.282	3	1	22	966	3	1	423	0	8	26	lorapark-co2-02	2026-05-02T11:00:14
1503	6.322	3	1	23	966	3	1	352	0	18	30	lorapark-co2-01	2026-05-02T11:00:53
1504	6.356	3	1	23	966	3	1	352	0	19	30	lorapark-co2-01	2026-05-02T11:30:53
1505	6.305	3	1	22	965	3	1	421	0	10	27	lorapark-co2-02	2026-05-02T12:00:15
1506	6.322	3	1	23	965	3	1	351	0	20	30	lorapark-co2-01	2026-05-02T12:00:53
1507	6.311	3	1	23	965	3	1	418	0	11	26	lorapark-co2-02	2026-05-02T12:30:15
1508	6.322	3	1	23	965	3	1	350	0	21	30	lorapark-co2-01	2026-05-02T12:30:54
1509	6.288	3	1	23	964	3	1	418	0	12	26	lorapark-co2-02	2026-05-02T13:00:15
1510	6.333	3	1	23	965	3	1	344	0	22	30	lorapark-co2-01	2026-05-02T13:00:54
1511	6.265	3	1	23	964	3	1	419	0	13	26	lorapark-co2-02	2026-05-02T13:30:16
1512	6.322	3	1	23	964	3	1	344	0	23	30	lorapark-co2-01	2026-05-02T13:30:55
1513	6.276	3	1	23	964	3	1	419	0	14	26	lorapark-co2-02	2026-05-02T14:00:16
1514	6.35	3	1	23	964	3	1	343	0	24	30	lorapark-co2-01	2026-05-02T14:00:55
1515	6.276	3	1	23	964	3	1	419	0	15	27	lorapark-co2-02	2026-05-02T14:30:16
1516	6.339	3	1	23	964	3	1	342	0	25	30	lorapark-co2-01	2026-05-02T14:30:55
1517	6.271	3	1	23	963	3	1	419	0	16	27	lorapark-co2-02	2026-05-02T15:00:17
1518	6.35	3	1	23	963	3	1	340	0	26	30	lorapark-co2-01	2026-05-02T15:00:56
1519	6.271	3	1	24	963	3	1	417	0	17	27	lorapark-co2-02	2026-05-02T15:30:17
1520	6.322	3	1	23	963	3	1	338	0	27	30	lorapark-co2-01	2026-05-02T15:30:56
1521	6.299	3	1	24	962	3	1	417	0	18	25	lorapark-co2-02	2026-05-02T16:00:18
1522	6.322	3	1	23	963	3	1	338	0	28	30	lorapark-co2-01	2026-05-02T16:00:56
1523	6.305	3	1	24	962	3	1	416	0	19	25	lorapark-co2-02	2026-05-02T16:30:18
1524	6.316	3	1	23	962	3	1	337	0	29	30	lorapark-co2-01	2026-05-02T16:30:57
1525	6.299	3	1	24	962	3	1	416	0	20	26	lorapark-co2-02	2026-05-02T17:00:18
1526	6.328	3	1	23	962	3	1	337	0	30	30	lorapark-co2-01	2026-05-02T17:00:57
1527	6.305	3	1	24	962	3	1	416	0	21	26	lorapark-co2-02	2026-05-02T17:30:19
1528	6.322	3	1	23	962	3	1	337	0	31	30	lorapark-co2-01	2026-05-02T17:30:58
1529	6.282	3	1	24	962	3	1	415	0	22	26	lorapark-co2-02	2026-05-02T18:00:19
1530	6.345	3	1	23	962	3	1	336	0	32	31	lorapark-co2-01	2026-05-02T18:00:58
1531	6.276	3	1	24	962	3	1	414	0	23	26	lorapark-co2-02	2026-05-02T18:30:19
1532	6.328	3	1	23	962	3	1	336	0	33	31	lorapark-co2-01	2026-05-02T18:30:58
1533	6.288	3	1	24	962	3	1	416	0	24	26	lorapark-co2-02	2026-05-02T19:00:20
1534	6.322	3	1	23	962	3	1	336	0	34	31	lorapark-co2-01	2026-05-02T19:00:59
1535	6.305	3	1	24	962	3	1	417	0	25	26	lorapark-co2-02	2026-05-02T19:30:20
1536	6.356	3	1	23	962	3	1	335	0	35	31	lorapark-co2-01	2026-05-02T19:30:59
1537	6.265	3	1	24	962	3	1	418	0	26	26	lorapark-co2-02	2026-05-02T20:00:20
1538	6.322	3	1	23	962	3	1	336	0	36	31	lorapark-co2-01	2026-05-02T20:00:59
1539	6.276	3	1	24	962	3	1	420	0	27	27	lorapark-co2-02	2026-05-02T20:30:21
1540	6.316	3	1	23	962	3	1	338	0	37	32	lorapark-co2-01	2026-05-02T20:31:00
1541	6.282	3	1	24	962	3	1	424	0	28	27	lorapark-co2-02	2026-05-02T21:00:21
1542	6.328	3	1	23	962	3	1	343	0	38	32	lorapark-co2-01	2026-05-02T21:01:00
1543	6.271	3	1	24	962	3	1	426	0	29	27	lorapark-co2-02	2026-05-02T21:30:22
1544	6.322	3	1	23	962	3	1	344	0	39	32	lorapark-co2-01	2026-05-02T21:31:01
1545	6.299	3	1	23	962	3	1	428	0	30	27	lorapark-co2-02	2026-05-02T22:00:22
1546	6.322	3	1	23	962	3	1	347	0	40	32	lorapark-co2-01	2026-05-02T22:01:01
1547	6.282	3	1	23	962	3	1	429	0	31	27	lorapark-co2-02	2026-05-02T22:30:22
1548	6.322	3	1	23	962	3	1	349	0	41	32	lorapark-co2-01	2026-05-02T22:31:01
1549	6.265	3	1	23	962	3	1	428	0	32	27	lorapark-co2-02	2026-05-02T23:00:23
1550	6.35	3	1	23	962	3	1	352	0	42	32	lorapark-co2-01	2026-05-02T23:01:02
1551	6.271	3	1	23	961	3	1	430	0	33	27	lorapark-co2-02	2026-05-02T23:30:23
1552	6.316	3	1	23	962	3	1	355	0	43	32	lorapark-co2-01	2026-05-02T23:31:02
1553	6.271	3	1	23	961	3	1	431	0	34	27	lorapark-co2-02	2026-05-03T00:00:23
1554	6.328	3	1	23	961	3	1	357	0	44	32	lorapark-co2-01	2026-05-03T00:01:02
1555	6.271	3	1	23	961	3	1	434	0	35	27	lorapark-co2-02	2026-05-03T00:30:24
1556	6.322	3	1	22	961	3	1	360	0	45	32	lorapark-co2-01	2026-05-03T00:31:03
1557	6.271	3	1	23	961	3	1	435	0	36	27	lorapark-co2-02	2026-05-03T01:00:24
1558	6.35	3	1	22	961	3	1	362	0	46	32	lorapark-co2-01	2026-05-03T01:01:03
1559	6.282	3	1	23	961	3	1	435	0	37	27	lorapark-co2-02	2026-05-03T01:30:24
1560	6.322	3	1	22	961	3	1	368	0	47	32	lorapark-co2-01	2026-05-03T01:31:04
1561	6.265	3	1	23	961	3	1	436	0	38	27	lorapark-co2-02	2026-05-03T02:00:25
1562	6.316	3	1	22	961	3	1	374	0	48	32	lorapark-co2-01	2026-05-03T02:01:04
1563	6.282	3	1	23	961	3	1	439	0	39	27	lorapark-co2-02	2026-05-03T02:30:25
1564	6.328	3	1	22	961	3	1	374	0	49	32	lorapark-co2-01	2026-05-03T02:31:04
1565	6.271	3	1	23	961	3	1	440	0	40	27	lorapark-co2-02	2026-05-03T03:00:26
1566	6.316	3	1	22	961	3	1	374	0	50	32	lorapark-co2-01	2026-05-03T03:01:05
1567	6.305	3	1	23	961	3	1	442	0	41	27	lorapark-co2-02	2026-05-03T03:30:26
1568	6.316	3	1	22	961	3	1	376	0	51	33	lorapark-co2-01	2026-05-03T03:31:05
1569	6.299	3	1	23	961	3	1	443	0	42	28	lorapark-co2-02	2026-05-03T04:00:26
1570	6.328	3	1	22	961	3	1	378	0	52	33	lorapark-co2-01	2026-05-03T04:01:05
1571	6.305	3	1	23	961	3	1	445	0	43	28	lorapark-co2-02	2026-05-03T04:30:27
1572	6.328	3	1	22	961	3	1	381	0	53	33	lorapark-co2-01	2026-05-03T04:31:06
1573	6.288	3	1	23	961	3	1	448	0	44	28	lorapark-co2-02	2026-05-03T05:00:27
1574	6.328	3	1	22	961	3	1	383	0	54	33	lorapark-co2-01	2026-05-03T05:01:06
1575	6.276	3	1	23	961	3	1	448	0	45	28	lorapark-co2-02	2026-05-03T05:30:27
1576	6.322	3	1	22	961	3	1	384	0	55	32	lorapark-co2-01	2026-05-03T05:31:07
1577	6.271	3	1	22	961	3	1	450	0	46	28	lorapark-co2-02	2026-05-03T06:00:28
1578	6.339	3	1	22	961	3	1	385	0	56	32	lorapark-co2-01	2026-05-03T06:01:07
1579	6.271	3	1	22	961	3	1	453	0	47	28	lorapark-co2-02	2026-05-03T06:30:28
1580	6.328	3	1	23	961	3	1	386	0	57	32	lorapark-co2-01	2026-05-03T06:31:07
1581	6.265	3	1	22	961	3	1	456	0	48	28	lorapark-co2-02	2026-05-03T07:00:28
1582	6.316	3	1	23	961	3	1	387	0	58	31	lorapark-co2-01	2026-05-03T07:01:08
1583	6.305	3	1	22	961	3	1	453	0	49	28	lorapark-co2-02	2026-05-03T07:30:29
1584	6.316	3	1	23	961	3	1	390	0	59	31	lorapark-co2-01	2026-05-03T07:31:08
1585	6.288	3	1	22	961	3	1	455	0	50	28	lorapark-co2-02	2026-05-03T08:00:29
1586	6.322	3	1	24	961	3	1	389	0	60	31	lorapark-co2-01	2026-05-03T08:01:08
1587	6.299	3	1	22	961	3	1	455	0	51	28	lorapark-co2-02	2026-05-03T08:30:30
1588	6.328	3	1	24	961	3	1	387	0	61	31	lorapark-co2-01	2026-05-03T08:31:09
1589	6.276	3	1	23	960	3	1	455	0	52	28	lorapark-co2-02	2026-05-03T09:00:30
1590	6.333	3	1	24	961	3	1	380	0	62	31	lorapark-co2-01	2026-05-03T09:01:09
1591	6.276	3	1	23	960	3	1	455	0	53	29	lorapark-co2-02	2026-05-03T09:30:30
1592	6.322	3	1	24	960	3	1	374	0	63	30	lorapark-co2-01	2026-05-03T09:31:10
1593	6.276	3	1	23	960	3	1	452	0	54	29	lorapark-co2-02	2026-05-03T10:00:31
1594	6.316	3	1	25	960	3	1	370	0	64	30	lorapark-co2-01	2026-05-03T10:01:10
1595	6.311	3	1	23	960	3	1	449	0	55	28	lorapark-co2-02	2026-05-03T10:30:31
1596	6.322	3	1	25	960	3	1	365	0	65	30	lorapark-co2-01	2026-05-03T10:31:10
1597	6.271	3	1	23	959	3	1	448	0	56	28	lorapark-co2-02	2026-05-03T11:00:31
1598	6.316	3	1	25	959	3	1	362	0	66	30	lorapark-co2-01	2026-05-03T11:01:11
1599	6.265	3	1	23	959	3	1	445	0	57	28	lorapark-co2-02	2026-05-03T11:30:32
1600	6.271	3	1	23	959	3	1	443	0	58	28	lorapark-co2-02	2026-05-03T12:00:32
1601	6.322	3	1	24	959	3	1	357	0	68	30	lorapark-co2-01	2026-05-03T12:01:11
1602	6.282	3	1	23	959	3	1	442	0	59	28	lorapark-co2-02	2026-05-03T12:30:33
1603	6.316	3	1	24	959	3	1	356	0	69	30	lorapark-co2-01	2026-05-03T12:31:12
1604	6.316	3	1	23	958	3	1	442	0	60	28	lorapark-co2-02	2026-05-03T13:00:33
1605	6.265	3	1	23	958	3	1	438	0	61	29	lorapark-co2-02	2026-05-03T13:30:33
1606	6.271	3	1	23	958	3	1	436	0	62	29	lorapark-co2-02	2026-05-03T14:00:34
1607	6.322	3	1	24	958	3	1	353	0	72	31	lorapark-co2-01	2026-05-03T14:01:13
1608	6.299	3	1	23	958	3	1	434	0	63	29	lorapark-co2-02	2026-05-03T14:30:34
1609	6.271	3	1	24	957	3	1	432	0	64	29	lorapark-co2-02	2026-05-03T15:00:34
1610	6.316	3	1	24	957	3	1	351	0	74	31	lorapark-co2-01	2026-05-03T15:01:14
1611	6.265	3	1	24	957	3	1	428	0	65	28	lorapark-co2-02	2026-05-03T15:30:35
1612	6.322	3	1	24	957	3	1	349	0	75	31	lorapark-co2-01	2026-05-03T15:31:14
1613	6.282	3	1	24	957	3	1	427	0	66	28	lorapark-co2-02	2026-05-03T16:00:35
1614	6.322	3	1	24	957	3	1	347	0	76	31	lorapark-co2-01	2026-05-03T16:01:14
1615	6.271	3	1	24	957	3	1	427	0	67	28	lorapark-co2-02	2026-05-03T16:30:35
1616	6.322	3	1	24	957	3	1	347	0	77	31	lorapark-co2-01	2026-05-03T16:31:15
1617	6.271	3	1	24	957	3	1	428	0	68	29	lorapark-co2-02	2026-05-03T17:00:36
1618	6.345	3	1	24	957	3	1	344	0	78	31	lorapark-co2-01	2026-05-03T17:01:15
1619	6.271	3	1	24	958	3	1	426	0	69	28	lorapark-co2-02	2026-05-03T17:30:36
1620	6.322	3	1	23	958	3	1	343	0	79	32	lorapark-co2-01	2026-05-03T17:31:16
1621	6.265	3	1	24	957	3	1	425	0	70	28	lorapark-co2-02	2026-05-03T18:00:36
1622	6.311	3	1	23	958	3	1	343	0	80	32	lorapark-co2-01	2026-05-03T18:01:16
1623	6.282	3	1	24	958	3	1	423	0	71	28	lorapark-co2-02	2026-05-03T18:30:37
1624	6.322	3	1	23	958	3	1	341	0	81	32	lorapark-co2-01	2026-05-03T18:31:16
1625	6.305	3	1	24	958	3	1	420	0	72	28	lorapark-co2-02	2026-05-03T19:00:37
1626	6.316	3	1	23	958	3	1	340	0	82	32	lorapark-co2-01	2026-05-03T19:01:17
1627	6.265	3	1	24	958	3	1	418	0	73	29	lorapark-co2-02	2026-05-03T19:30:38
1628	6.316	3	1	23	958	3	1	339	0	83	32	lorapark-co2-01	2026-05-03T19:31:17
1629	6.271	3	1	24	959	3	1	417	0	74	29	lorapark-co2-02	2026-05-03T20:00:38
1630	6.339	3	1	23	959	3	1	339	0	84	33	lorapark-co2-01	2026-05-03T20:01:17
1631	6.271	3	1	24	959	3	1	416	0	75	29	lorapark-co2-02	2026-05-03T20:30:38
1632	6.345	3	1	23	959	3	1	339	0	85	33	lorapark-co2-01	2026-05-03T20:31:18
1633	6.311	3	1	23	960	3	1	338	0	86	33	lorapark-co2-01	2026-05-03T21:01:18
1634	6.305	3	1	23	960	3	1	411	0	77	29	lorapark-co2-02	2026-05-03T21:30:39
1635	6.322	3	1	23	960	3	1	337	0	87	33	lorapark-co2-01	2026-05-03T21:31:19
1636	6.299	3	1	23	960	3	1	409	0	78	29	lorapark-co2-02	2026-05-03T22:00:39
1637	6.316	3	1	23	960	3	1	336	0	88	33	lorapark-co2-01	2026-05-03T22:01:19
1638	6.305	3	1	23	960	3	1	409	0	79	29	lorapark-co2-02	2026-05-03T22:30:40
1639	6.322	3	1	23	960	3	1	335	0	89	32	lorapark-co2-01	2026-05-03T22:31:19
1640	6.276	3	1	23	960	3	1	409	0	80	29	lorapark-co2-02	2026-05-03T23:00:40
1641	6.322	3	1	23	961	3	1	335	0	90	32	lorapark-co2-01	2026-05-03T23:01:20
1642	6.276	3	1	23	960	3	1	408	0	81	29	lorapark-co2-02	2026-05-03T23:30:40
1643	6.316	3	1	23	960	3	1	332	0	91	32	lorapark-co2-01	2026-05-03T23:31:20
